Observation data for Castolon 1NW BBNP on 05/24/2020      Previous  Date  Next       Current Mesonet Observations  Soil Data  Daily Summary Page  Observations in Plain Language
KCA2 240500Z 11010KT 31/16 A2974 RMK A01 T03050157  RH  041%=      5-min Rain = 0
KCA2 240501Z 11010KT 31/16 A2974 RMK A01 T03050157  RH  041%=      5-min Rain = 0
KCA2 240502Z 10014KT 30/16 A2974 RMK A01 T03040158  RH  041%=      5-min Rain = 0
KCA2 240503Z 11011KT 30/16 A2974 RMK A01 T03040158  RH  041%=      5-min Rain = 0
KCA2 240504Z 11011KT 30/16 A2974 RMK A01 T03040159  RH  041%=      5-min Rain = 0
KCA2 240505Z 12016KT 30/16 A2974 RMK A01 T03030159  RH  042%=      5-min Rain = 0
KCA2 240506Z 11018G23KT 30/16 A2974 RMK A01 T03030160  RH  042%=      5-min Rain = 0
KCA2 240507Z 10015KT 30/16 A2974 RMK A01 T03030160  RH  042%=      5-min Rain = 0
KCA2 240508Z 11014KT 30/16 A2974 RMK A01 T03030160  RH  042%=      5-min Rain = 0
KCA2 240509Z 11012G17KT 30/16 A2974 RMK A01 T03020160  RH  042%=      5-min Rain = 0
KCA2 240510Z 11017KT 30/16 A2974 RMK A01 T03020160  RH  042%=      5-min Rain = 0
KCA2 240511Z 11015G20KT 30/16 A2974 RMK A01 T03020160  RH  042%=      5-min Rain = 0
KCA2 240512Z 11017KT 30/16 A2974 RMK A01 T03020160  RH  042%=      5-min Rain = 0
KCA2 240513Z 10014KT 30/16 A2974 RMK A01 T03020160  RH  042%=      5-min Rain = 0
KCA2 240514Z 11015KT 30/16 A2974 RMK A01 T03010160  RH  042%=      5-min Rain = 0
KCA2 240515Z 11015KT 30/16 A2974 RMK A01 T03010160  RH  043%=      5-min Rain = 0
KCA2 240516Z 10012G18KT 30/16 A2974 RMK A01 T03010160  RH  043%=      5-min Rain = 0
KCA2 240517Z 11015G20KT 30/16 A2974 RMK A01 T03010160  RH  043%=      5-min Rain = 0
KCA2 240518Z 11015KT 30/16 A2974 RMK A01 T03000160  RH  043%=      5-min Rain = 0
KCA2 240519Z 12014KT 30/16 A2974 RMK A01 T03000160  RH  043%=      5-min Rain = 0
KCA2 240520Z 12014KT 30/16 A2974 RMK A01 T03000159  RH  043%=      5-min Rain = 0
KCA2 240521Z 12017KT 30/16 A2974 RMK A01 T03000159  RH  043%=      5-min Rain = 0
KCA2 240522Z 11014KT 30/16 A2974 RMK A01 T03000159  RH  043%=      5-min Rain = 0
KCA2 240523Z 11014KT 30/16 A2974 RMK A01 T03000158  RH  042%=      5-min Rain = 0
KCA2 240524Z 11010KT 30/16 A2975 RMK A01 T02990158  RH  042%=      5-min Rain = 0
KCA2 240525Z 11011KT 30/16 A2975 RMK A01 T02990158  RH  042%=      5-min Rain = 0
KCA2 240526Z 11014KT 30/16 A2975 RMK A01 T02990158  RH  042%=      5-min Rain = 0
KCA2 240527Z 12015G20KT 30/16 A2975 RMK A01 T02990157  RH  042%=      5-min Rain = 0
KCA2 240528Z 12015KT 30/16 A2975 RMK A01 T02990157  RH  042%=      5-min Rain = 0
KCA2 240529Z 11013KT 30/16 A2975 RMK A01 T02990157  RH  042%=      5-min Rain = 0
KCA2 240530Z 12011KT 30/16 A2975 RMK A01 T02990157  RH  042%=      5-min Rain = 0
KCA2 240531Z 11010KT 30/16 A2975 RMK A01 T02990157  RH  042%=      5-min Rain = 0
KCA2 240532Z 12012KT 30/16 A2975 RMK A01 T02990157  RH  042%=      5-min Rain = 0
KCA2 240533Z 12013KT 30/16 A2975 RMK A01 T02980157  RH  042%=      5-min Rain = 0
KCA2 240534Z 11013KT 30/16 A2975 RMK A01 T02980157  RH  042%=      5-min Rain = 0
KCA2 240535Z 11015KT 30/16 A2975 RMK A01 T02990157  RH  042%=      5-min Rain = 0
KCA2 240536Z 12013KT 30/16 A2975 RMK A01 T02990157  RH  042%=      5-min Rain = 0
KCA2 240537Z 11013KT 30/16 A2975 RMK A01 T02990157  RH  042%=      5-min Rain = 0
KCA2 240538Z 12015KT 30/16 A2975 RMK A01 T02990158  RH  042%=      5-min Rain = 0
KCA2 240539Z 11015KT 30/16 A2975 RMK A01 T02980157  RH  043%=      5-min Rain = 0
KCA2 240540Z 12016G23KT 30/16 A2975 RMK A01 T02980157  RH  043%=      5-min Rain = 0
KCA2 240541Z 12016KT 30/16 A2975 RMK A01 T02980157  RH  043%=      5-min Rain = 0
KCA2 240542Z 13015KT 30/16 A2975 RMK A01 T02980157  RH  043%=      5-min Rain = 0
KCA2 240543Z 12014KT 30/16 A2975 RMK A01 T02970157  RH  043%=      5-min Rain = 0
KCA2 240544Z 12016KT 30/16 A2975 RMK A01 T02970157  RH  043%=      5-min Rain = 0
KCA2 240545Z 12015KT 30/16 A2975 RMK A01 T02970157  RH  043%=      5-min Rain = 0
KCA2 240546Z 11014G19KT 30/16 A2975 RMK A01 T02970156  RH  043%=      5-min Rain = 0
KCA2 240547Z 12013KT 30/16 A2975 RMK A01 T02960156  RH  043%=      5-min Rain = 0
KCA2 240548Z 12014KT 30/16 A2975 RMK A01 T02970156  RH  043%=      5-min Rain = 0
KCA2 240549Z 12014KT 30/16 A2975 RMK A01 T02960156  RH  043%=      5-min Rain = 0
KCA2 240550Z 12013KT 30/16 A2975 RMK A01 T02960156  RH  043%=      5-min Rain = 0
KCA2 240551Z 12011KT 30/16 A2975 RMK A01 T02960156  RH  043%=      5-min Rain = 0
KCA2 240552Z 13011KT 30/16 A2975 RMK A01 T02950155  RH  043%=      5-min Rain = 0
KCA2 240553Z 13017G23KT 30/16 A2974 RMK A01 T02950155  RH  043%=      5-min Rain = 0
KCA2 240554Z 12021G26KT 30/15 A2974 RMK A01 T02950154  RH  043%=      5-min Rain = 0
KCA2 240555Z 13020KT 30/16 A2974 RMK A01 T02950155  RH  043%=      5-min Rain = 0
KCA2 240556Z 13018KT 30/16 A2974 RMK A01 T02950155  RH  043%=      5-min Rain = 0
KCA2 240557Z 13018KT 29/16 A2974 RMK A01 T02940155  RH  043%=      5-min Rain = 0
KCA2 240558Z 13018KT 29/16 A2974 RMK A01 T02940156  RH  043%=      5-min Rain = 0
KCA2 240559Z 13015KT 29/16 A2974 RMK A01 T02940156  RH  043%=      5-min Rain = 0
KCA2 240600Z 12017KT 29/16 A2974 RMK A01 T02930155  RH  043%=      5-min Rain = 0
KCA2 240601Z 13018KT 29/16 A2974 RMK A01 T02930155  RH  043%=      5-min Rain = 0
KCA2 240602Z 12019KT 29/16 A2974 RMK A01 T02930155  RH  043%=      5-min Rain = 0
KCA2 240603Z 13018KT 29/16 A2974 RMK A01 T02930156  RH  043%=      5-min Rain = 0
KCA2 240604Z 13019G24KT 29/16 A2974 RMK A01 T02930156  RH  043%=      5-min Rain = 0
KCA2 240605Z 12017KT 29/15 A2974 RMK A01 T02930154  RH  043%=      5-min Rain = 0
KCA2 240606Z 13017G22KT 29/15 A2974 RMK A01 T02930153  RH  043%=      5-min Rain = 0
KCA2 240607Z 12017G23KT 29/15 A2974 RMK A01 T02930152  RH  042%=      5-min Rain = 0
KCA2 240608Z 13017KT 29/15 A2974 RMK A01 T02930152  RH  042%=      5-min Rain = 0
KCA2 240609Z 13017KT 29/15 A2974 RMK A01 T02930152  RH  042%=      5-min Rain = 0
KCA2 240610Z 13019KT 29/15 A2974 RMK A01 T02930151  RH  042%=      5-min Rain = 0
KCA2 240611Z 12015KT 29/15 A2974 RMK A01 T02930151  RH  042%=      5-min Rain = 0
KCA2 240612Z 12012KT 29/15 A2974 RMK A01 T02930151  RH  042%=      5-min Rain = 0
KCA2 240613Z 13012KT 29/15 A2974 RMK A01 T02930151  RH  042%=      5-min Rain = 0
KCA2 240614Z 13011KT 29/15 A2974 RMK A01 T02920151  RH  042%=      5-min Rain = 0
KCA2 240615Z 14014KT 29/15 A2974 RMK A01 T02920151  RH  042%=      5-min Rain = 0
KCA2 240616Z 13012KT 29/15 A2974 RMK A01 T02910151  RH  042%=      5-min Rain = 0
KCA2 240617Z 13011KT 29/15 A2974 RMK A01 T02910150  RH  042%=      5-min Rain = 0
KCA2 240618Z 13012KT 29/15 A2974 RMK A01 T02900150  RH  042%=      5-min Rain = 0
KCA2 240619Z 14011KT 29/15 A2974 RMK A01 T02900150  RH  042%=      5-min Rain = 0
KCA2 240620Z 14009KT 29/15 A2974 RMK A01 T02900150  RH  042%=      5-min Rain = 0
KCA2 240621Z 13010KT 29/15 A2974 RMK A01 T02900150  RH  043%=      5-min Rain = 0
KCA2 240622Z 13010G15KT 29/15 A2974 RMK A01 T02900150  RH  042%=      5-min Rain = 0
KCA2 240623Z 13009KT 29/15 A2974 RMK A01 T02900150  RH  042%=      5-min Rain = 0
KCA2 240624Z 13010KT 29/15 A2974 RMK A01 T02900150  RH  042%=      5-min Rain = 0
KCA2 240625Z 12009KT 29/15 A2974 RMK A01 T02900149  RH  042%=      5-min Rain = 0
KCA2 240626Z 13012KT 29/15 A2974 RMK A01 T02900148  RH  042%=      5-min Rain = 0
KCA2 240627Z 12014G19KT 29/15 A2974 RMK A01 T02900147  RH  042%=      5-min Rain = 0
KCA2 240628Z 12016KT 29/15 A2974 RMK A01 T02910146  RH  041%=      5-min Rain = 0
KCA2 240629Z 12016KT 29/15 A2974 RMK A01 T02920145  RH  041%=      5-min Rain = 0
KCA2 240630Z 12012KT 29/15 A2974 RMK A01 T02930145  RH  041%=      5-min Rain = 0
KCA2 240631Z 13017KT 29/15 A2974 RMK A01 T02930145  RH  041%=      5-min Rain = 0
KCA2 240632Z 13014KT 29/15 A2974 RMK A01 T02930145  RH  041%=      5-min Rain = 0
KCA2 240633Z 12018KT 29/15 A2974 RMK A01 T02920145  RH  041%=      5-min Rain = 0
KCA2 240634Z 13016G21KT 29/15 A2974 RMK A01 T02920145  RH  041%=      5-min Rain = 0
KCA2 240635Z 12013KT 29/14 A2974 RMK A01 T02920144  RH  040%=      5-min Rain = 0
KCA2 240636Z 12012G17KT 29/14 A2974 RMK A01 T02920143  RH  040%=      5-min Rain = 0
KCA2 240637Z 12016KT 29/14 A2974 RMK A01 T02920142  RH  040%=      5-min Rain = 0
KCA2 240638Z 12018KT 29/14 A2974 RMK A01 T02920141  RH  040%=      5-min Rain = 0
KCA2 240639Z 12015KT 29/14 A2974 RMK A01 T02920142  RH  040%=      5-min Rain = 0
KCA2 240640Z 12013G18KT 29/14 A2975 RMK A01 T02930143  RH  040%=      5-min Rain = 0
KCA2 240641Z 13014KT 29/14 A2975 RMK A01 T02920143  RH  040%=      5-min Rain = 0
KCA2 240642Z 13013KT 29/14 A2975 RMK A01 T02910143  RH  040%=      5-min Rain = 0
KCA2 240643Z 13015G20KT 29/14 A2974 RMK A01 T02910142  RH  040%=      5-min Rain = 0
KCA2 240644Z 13017KT 29/14 A2974 RMK A01 T02900140  RH  040%=      5-min Rain = 0
KCA2 240645Z 13016KT 29/14 A2974 RMK A01 T02900140  RH  040%=      5-min Rain = 0
KCA2 240646Z 13016G23KT 29/14 A2974 RMK A01 T02900140  RH  040%=      5-min Rain = 0
KCA2 240647Z 13018KT 29/14 A2974 RMK A01 T02900140  RH  040%=      5-min Rain = 0
KCA2 240648Z 12014G19KT 29/14 A2974 RMK A01 T02900140  RH  040%=      5-min Rain = 0
KCA2 240649Z 13012KT 29/14 A2974 RMK A01 T02900140  RH  040%=      5-min Rain = 0
KCA2 240650Z 13015KT 29/14 A2974 RMK A01 T02890140  RH  040%=      5-min Rain = 0
KCA2 240651Z 13014KT 29/14 A2974 RMK A01 T02890140  RH  040%=      5-min Rain = 0
KCA2 240652Z 14014KT 29/14 A2974 RMK A01 T02880140  RH  040%=      5-min Rain = 0
KCA2 240653Z 13014KT 29/14 A2974 RMK A01 T02880141  RH  041%=      5-min Rain = 0
KCA2 240654Z 13015KT 29/14 A2974 RMK A01 T02880141  RH  041%=      5-min Rain = 0
KCA2 240655Z 12015KT 29/14 A2974 RMK A01 T02880140  RH  040%=      5-min Rain = 0
KCA2 240656Z 12012KT 29/14 A2974 RMK A01 T02880140  RH  040%=      5-min Rain = 0
KCA2 240657Z 13011KT 29/14 A2974 RMK A01 T02880140  RH  040%=      5-min Rain = 0
KCA2 240658Z 13012KT 29/14 A2974 RMK A01 T02870141  RH  041%=      5-min Rain = 0
KCA2 240659Z 13013KT 29/14 A2974 RMK A01 T02860141  RH  041%=      5-min Rain = 0
KCA2 240700Z 13012KT 29/14 A2974 RMK A01 T02860140  RH  041%=      5-min Rain = 0
KCA2 240701Z 13014KT 29/14 A2974 RMK A01 T02850140  RH  041%=      5-min Rain = 0
KCA2 240702Z 14015G20KT 29/14 A2974 RMK A01 T02860140  RH  041%=      5-min Rain = 0
KCA2 240703Z 13012KT 29/14 A2974 RMK A01 T02850141  RH  041%=      5-min Rain = 0
KCA2 240704Z 13012KT 28/14 A2974 RMK A01 T02840141  RH  042%=      5-min Rain = 0
KCA2 240705Z 13012KT 28/14 A2974 RMK A01 T02840140  RH  041%=      5-min Rain = 0
KCA2 240706Z 13013KT 28/14 A2974 RMK A01 T02830141  RH  042%=      5-min Rain = 0
KCA2 240707Z 13013G18KT 28/14 A2974 RMK A01 T02830140  RH  042%=      5-min Rain = 0
KCA2 240708Z 14012KT 28/14 A2974 RMK A01 T02820140  RH  042%=      5-min Rain = 0
KCA2 240709Z 14013KT 28/14 A2974 RMK A01 T02820139  RH  042%=      5-min Rain = 0
KCA2 240710Z 13014KT 28/14 A2974 RMK A01 T02810139  RH  042%=      5-min Rain = 0
KCA2 240711Z 13016G22KT 28/14 A2974 RMK A01 T02820137  RH  041%=      5-min Rain = 0
KCA2 240712Z 12016G22KT 28/14 A2974 RMK A01 T02820137  RH  041%=      5-min Rain = 0
KCA2 240713Z 13014KT 28/14 A2974 RMK A01 T02820136  RH  041%=      5-min Rain = 0
KCA2 240714Z 13016KT 28/14 A2974 RMK A01 T02830136  RH  040%=      5-min Rain = 0
KCA2 240715Z 13014KT 28/14 A2974 RMK A01 T02840136  RH  040%=      5-min Rain = 0
KCA2 240716Z 13016KT 28/13 A2974 RMK A01 T02840134  RH  040%=      5-min Rain = 0
KCA2 240717Z 13018KT 28/13 A2974 RMK A01 T02840134  RH  040%=      5-min Rain = 0
KCA2 240718Z 13015KT 28/13 A2974 RMK A01 T02840134  RH  040%=      5-min Rain = 0
KCA2 240719Z 13015KT 28/13 A2974 RMK A01 T02840134  RH  040%=      5-min Rain = 0
KCA2 240720Z 13013G19KT 28/13 A2974 RMK A01 T02840134  RH  040%=      5-min Rain = 0
KCA2 240721Z 13013KT 28/13 A2974 RMK A01 T02840134  RH  040%=      5-min Rain = 0
KCA2 240722Z 14013KT 28/13 A2974 RMK A01 T02830134  RH  040%=      5-min Rain = 0
KCA2 240723Z 14015G20KT 28/14 A2974 RMK A01 T02830135  RH  040%=      5-min Rain = 0
KCA2 240724Z 14015G21KT 28/13 A2974 RMK A01 T02820133  RH  040%=      5-min Rain = 0
KCA2 240725Z 12019KT 28/13 A2974 RMK A01 T02820132  RH  039%=      5-min Rain = 0
KCA2 240726Z 13014KT 28/13 A2974 RMK A01 T02830131  RH  039%=      5-min Rain = 0
KCA2 240727Z 14015KT 28/13 A2974 RMK A01 T02830133  RH  040%=      5-min Rain = 0
KCA2 240728Z 13013KT 28/13 A2974 RMK A01 T02830133  RH  040%=      5-min Rain = 0
KCA2 240729Z 12014G19KT 28/13 A2974 RMK A01 T02830132  RH  039%=      5-min Rain = 0
KCA2 240730Z 12015KT 28/13 A2974 RMK A01 T02840131  RH  039%=      5-min Rain = 0
KCA2 240731Z 13018KT 28/13 A2974 RMK A01 T02840131  RH  039%=      5-min Rain = 0
KCA2 240732Z 13015KT 29/13 A2974 RMK A01 T02850131  RH  039%=      5-min Rain = 0
KCA2 240733Z 13016KT 29/13 A2974 RMK A01 T02850131  RH  039%=      5-min Rain = 0
KCA2 240734Z 13017KT 29/13 A2974 RMK A01 T02850131  RH  039%=      5-min Rain = 0
KCA2 240735Z 13014KT 29/13 A2974 RMK A01 T02850130  RH  039%=      5-min Rain = 0
KCA2 240736Z 14010G15KT 29/13 A2974 RMK A01 T02850131  RH  039%=      5-min Rain = 0
KCA2 240737Z 13010KT 28/13 A2974 RMK A01 T02840132  RH  039%=      5-min Rain = 0
KCA2 240738Z 13012KT 28/13 A2974 RMK A01 T02820131  RH  039%=      5-min Rain = 0
KCA2 240739Z 13012KT 28/13 A2974 RMK A01 T02810131  RH  040%=      5-min Rain = 0
KCA2 240740Z 14012KT 28/13 A2974 RMK A01 T02810131  RH  040%=      5-min Rain = 0
KCA2 240741Z 13013KT 28/13 A2974 RMK A01 T02810132  RH  040%=      5-min Rain = 0
KCA2 240742Z 14009KT 28/13 A2974 RMK A01 T02820132  RH  040%=      5-min Rain = 0
KCA2 240743Z 13010KT 28/13 A2974 RMK A01 T02820131  RH  040%=      5-min Rain = 0
KCA2 240744Z 13010KT 28/13 A2974 RMK A01 T02810132  RH  040%=      5-min Rain = 0
KCA2 240745Z 14010KT 28/13 A2974 RMK A01 T02800132  RH  040%=      5-min Rain = 0
KCA2 240746Z 13009KT 28/13 A2974 RMK A01 T02790132  RH  040%=      5-min Rain = 0
KCA2 240747Z 14010KT 28/13 A2974 RMK A01 T02790132  RH  040%=      5-min Rain = 0
KCA2 240748Z 13010KT 28/13 A2974 RMK A01 T02790132  RH  040%=      5-min Rain = 0
KCA2 240749Z 12011KT 28/13 A2974 RMK A01 T02790132  RH  040%=      5-min Rain = 0
KCA2 240750Z 13010KT 28/13 A2974 RMK A01 T02790131  RH  040%=      5-min Rain = 0
KCA2 240751Z 13012KT 28/13 A2974 RMK A01 T02790131  RH  040%=      5-min Rain = 0
KCA2 240752Z 13015KT 28/13 A2974 RMK A01 T02800132  RH  040%=      5-min Rain = 0
KCA2 240753Z 13014KT 28/13 A2974 RMK A01 T02810132  RH  040%=      5-min Rain = 0
KCA2 240754Z 13013KT 28/13 A2974 RMK A01 T02820131  RH  040%=      5-min Rain = 0
KCA2 240755Z 14011KT 28/13 A2974 RMK A01 T02820132  RH  040%=      5-min Rain = 0
KCA2 240756Z 13011KT 28/13 A2974 RMK A01 T02810132  RH  040%=      5-min Rain = 0
KCA2 240757Z 13011KT 28/13 A2974 RMK A01 T02800132  RH  040%=      5-min Rain = 0
KCA2 240758Z 13011KT 28/13 A2975 RMK A01 T02800132  RH  040%=      5-min Rain = 0
KCA2 240759Z 13016KT 28/13 A2974 RMK A01 T02800131  RH  040%=      5-min Rain = 0
KCA2 240800Z 12016G21KT 28/13 A2974 RMK A01 T02810131  RH  040%=      5-min Rain = 0
KCA2 240801Z 13014KT 28/13 A2975 RMK A01 T02820131  RH  039%=      5-min Rain = 0
KCA2 240802Z 13016KT 28/13 A2974 RMK A01 T02820131  RH  039%=      5-min Rain = 0
KCA2 240803Z 13016KT 28/13 A2975 RMK A01 T02820131  RH  039%=      5-min Rain = 0
KCA2 240804Z 13015KT 28/13 A2975 RMK A01 T02820130  RH  039%=      5-min Rain = 0
KCA2 240805Z 13012KT 28/13 A2975 RMK A01 T02820130  RH  039%=      5-min Rain = 0
KCA2 240806Z 13011KT 28/13 A2975 RMK A01 T02810131  RH  039%=      5-min Rain = 0
KCA2 240807Z 13013KT 28/13 A2975 RMK A01 T02800131  RH  040%=      5-min Rain = 0
KCA2 240808Z 13010KT 28/13 A2975 RMK A01 T02810131  RH  040%=      5-min Rain = 0
KCA2 240809Z 13010KT 28/13 A2975 RMK A01 T02800131  RH  040%=      5-min Rain = 0
KCA2 240810Z 13011G16KT 28/13 A2975 RMK A01 T02790130  RH  040%=      5-min Rain = 0
KCA2 240811Z 13011KT 28/13 A2975 RMK A01 T02790130  RH  040%=      5-min Rain = 0
KCA2 240812Z 13012KT 28/13 A2975 RMK A01 T02790130  RH  040%=      5-min Rain = 0
KCA2 240813Z 14013KT 28/13 A2975 RMK A01 T02790130  RH  040%=      5-min Rain = 0
KCA2 240814Z 13012KT 28/13 A2975 RMK A01 T02790130  RH  040%=      5-min Rain = 0
KCA2 240815Z 14013KT 28/13 A2975 RMK A01 T02790129  RH  040%=      5-min Rain = 0
KCA2 240816Z 13015G21KT 28/13 A2975 RMK A01 T02790130  RH  040%=      5-min Rain = 0
KCA2 240817Z 13013G18KT 28/13 A2975 RMK A01 T02790130  RH  040%=      5-min Rain = 0
KCA2 240818Z 13016G21KT 28/13 A2975 RMK A01 T02790129  RH  040%=      5-min Rain = 0
KCA2 240819Z 13015KT 28/13 A2975 RMK A01 T02790130  RH  040%=      5-min Rain = 0
KCA2 240820Z 13009KT 28/13 A2975 RMK A01 T02790129  RH  040%=      5-min Rain = 0
KCA2 240821Z 13016KT 28/13 A2975 RMK A01 T02790130  RH  040%=      5-min Rain = 0
KCA2 240822Z 13015KT 28/13 A2975 RMK A01 T02790130  RH  040%=      5-min Rain = 0
KCA2 240823Z 13012KT 28/13 A2975 RMK A01 T02790130  RH  040%=      5-min Rain = 0
KCA2 240824Z 13014KT 28/13 A2975 RMK A01 T02780130  RH  040%=      5-min Rain = 0
KCA2 240825Z 12012KT 28/13 A2975 RMK A01 T02780131  RH  040%=      5-min Rain = 0
KCA2 240826Z 13010KT 28/13 A2975 RMK A01 T02780131  RH  040%=      5-min Rain = 0
KCA2 240827Z 13010KT 28/13 A2975 RMK A01 T02780131  RH  040%=      5-min Rain = 0
KCA2 240828Z 13013KT 28/13 A2975 RMK A01 T02770131  RH  040%=      5-min Rain = 0
KCA2 240829Z 12014G19KT 28/13 A2975 RMK A01 T02770131  RH  041%=      5-min Rain = 0
KCA2 240830Z 12013KT 28/13 A2975 RMK A01 T02770131  RH  041%=      5-min Rain = 0
KCA2 240831Z 12013KT 28/13 A2976 RMK A01 T02770131  RH  041%=      5-min Rain = 0
KCA2 240832Z 13011KT 28/13 A2976 RMK A01 T02770131  RH  040%=      5-min Rain = 0
KCA2 240833Z 13012KT 28/13 A2976 RMK A01 T02780132  RH  041%=      5-min Rain = 0
KCA2 240834Z 13015KT 28/13 A2976 RMK A01 T02780132  RH  041%=      5-min Rain = 0
KCA2 240835Z 13015KT 28/13 A2976 RMK A01 T02780132  RH  041%=      5-min Rain = 0
KCA2 240836Z 12015KT 28/13 A2976 RMK A01 T02780132  RH  041%=      5-min Rain = 0
KCA2 240837Z 13015KT 28/13 A2976 RMK A01 T02780132  RH  041%=      5-min Rain = 0
KCA2 240838Z 13012KT 28/13 A2976 RMK A01 T02780132  RH  041%=      5-min Rain = 0
KCA2 240839Z 14011KT 28/13 A2976 RMK A01 T02780132  RH  041%=      5-min Rain = 0
KCA2 240840Z 13011KT 28/13 A2976 RMK A01 T02770133  RH  041%=      5-min Rain = 0
KCA2 240841Z 13011KT 28/13 A2976 RMK A01 T02770133  RH  041%=      5-min Rain = 0
KCA2 240842Z 13014KT 28/13 A2976 RMK A01 T02770134  RH  041%=      5-min Rain = 0
KCA2 240843Z 13009KT 28/13 A2976 RMK A01 T02760134  RH  041%=      5-min Rain = 0
KCA2 240844Z 12009G14KT 28/13 A2976 RMK A01 T02760134  RH  042%=      5-min Rain = 0
KCA2 240845Z 13011G17KT 28/14 A2976 RMK A01 T02760135  RH  042%=      5-min Rain = 0
KCA2 240846Z 12015KT 28/14 A2976 RMK A01 T02760135  RH  042%=      5-min Rain = 0
KCA2 240847Z 12015G20KT 28/14 A2976 RMK A01 T02760136  RH  042%=      5-min Rain = 0
KCA2 240848Z 13012KT 28/14 A2976 RMK A01 T02760137  RH  042%=      5-min Rain = 0
KCA2 240849Z 13015KT 28/14 A2976 RMK A01 T02760137  RH  042%=      5-min Rain = 0
KCA2 240850Z 12013KT 28/14 A2976 RMK A01 T02760137  RH  042%=      5-min Rain = 0
KCA2 240851Z 12010KT 28/14 A2977 RMK A01 T02760137  RH  043%=      5-min Rain = 0
KCA2 240852Z 13010KT 28/14 A2977 RMK A01 T02750138  RH  043%=      5-min Rain = 0
KCA2 240853Z 13011KT 28/14 A2977 RMK A01 T02750138  RH  043%=      5-min Rain = 0
KCA2 240854Z 14009G14KT 27/14 A2977 RMK A01 T02740138  RH  043%=      5-min Rain = 0
KCA2 240855Z 12013KT 27/14 A2977 RMK A01 T02740138  RH  043%=      5-min Rain = 0
KCA2 240856Z 12013KT 27/14 A2977 RMK A01 T02740138  RH  043%=      5-min Rain = 0
KCA2 240857Z 12013KT 27/14 A2977 RMK A01 T02740137  RH  043%=      5-min Rain = 0
KCA2 240858Z 12012KT 27/14 A2977 RMK A01 T02740137  RH  043%=      5-min Rain = 0
KCA2 240859Z 12011G16KT 28/14 A2977 RMK A01 T02750137  RH  043%=      5-min Rain = 0
KCA2 240900Z 12012KT 28/14 A2977 RMK A01 T02750137  RH  043%=      5-min Rain = 0
KCA2 240901Z 13011KT 28/14 A2977 RMK A01 T02750137  RH  043%=      5-min Rain = 0
KCA2 240902Z 13009KT 28/14 A2977 RMK A01 T02750137  RH  043%=      5-min Rain = 0
KCA2 240903Z 13010KT 28/14 A2977 RMK A01 T02750137  RH  043%=      5-min Rain = 0
KCA2 240904Z 12013KT 28/14 A2977 RMK A01 T02750136  RH  043%=      5-min Rain = 0
KCA2 240905Z 13012KT 28/14 A2977 RMK A01 T02750136  RH  042%=      5-min Rain = 0
KCA2 240906Z 13010G15KT 28/14 A2977 RMK A01 T02750135  RH  042%=      5-min Rain = 0
KCA2 240907Z 13013KT 28/14 A2977 RMK A01 T02750135  RH  042%=      5-min Rain = 0
KCA2 240908Z 13011KT 28/14 A2977 RMK A01 T02750135  RH  042%=      5-min Rain = 0
KCA2 240909Z 14011KT 28/14 A2977 RMK A01 T02750135  RH  042%=      5-min Rain = 0
KCA2 240910Z 14011KT 27/14 A2977 RMK A01 T02740135  RH  042%=      5-min Rain = 0
KCA2 240911Z 13011KT 27/14 A2977 RMK A01 T02740135  RH  042%=      5-min Rain = 0
KCA2 240912Z 12009KT 27/14 A2977 RMK A01 T02740135  RH  042%=      5-min Rain = 0
KCA2 240913Z 13010KT 27/14 A2977 RMK A01 T02740135  RH  042%=      5-min Rain = 0
KCA2 240914Z 13009KT 27/13 A2977 RMK A01 T02730134  RH  042%=      5-min Rain = 0
KCA2 240915Z 12009KT 27/13 A2977 RMK A01 T02730134  RH  042%=      5-min Rain = 0
KCA2 240916Z 13007KT 27/13 A2977 RMK A01 T02730134  RH  042%=      5-min Rain = 0
KCA2 240917Z 14009KT 27/13 A2977 RMK A01 T02730134  RH  042%=      5-min Rain = 0
KCA2 240918Z 13009KT 27/13 A2977 RMK A01 T02720134  RH  043%=      5-min Rain = 0
KCA2 240919Z 13009KT 27/13 A2977 RMK A01 T02720134  RH  043%=      5-min Rain = 0
KCA2 240920Z 12016KT 27/14 A2977 RMK A01 T02720135  RH  043%=      5-min Rain = 0
KCA2 240921Z 12015KT 27/14 A2977 RMK A01 T02730135  RH  043%=      5-min Rain = 0
KCA2 240922Z 12012G18KT 27/14 A2977 RMK A01 T02740135  RH  043%=      5-min Rain = 0
KCA2 240923Z 12012KT 27/14 A2977 RMK A01 T02740136  RH  043%=      5-min Rain = 0
KCA2 240924Z 13013KT 27/14 A2977 RMK A01 T02740136  RH  043%=      5-min Rain = 0
KCA2 240925Z 14010KT 27/14 A2977 RMK A01 T02740136  RH  043%=      5-min Rain = 0
KCA2 240926Z 14009G16KT 27/14 A2977 RMK A01 T02730135  RH  043%=      5-min Rain = 0
KCA2 240927Z 14014KT 27/14 A2977 RMK A01 T02720136  RH  043%=      5-min Rain = 0
KCA2 240928Z 14009G14KT 27/14 A2977 RMK A01 T02710136  RH  043%=      5-min Rain = 0
KCA2 240929Z 13010KT 27/14 A2977 RMK A01 T02710136  RH  043%=      5-min Rain = 0
KCA2 240930Z 11011KT 27/14 A2977 RMK A01 T02710136  RH  044%=      5-min Rain = 0
KCA2 240931Z 12008KT 27/14 A2977 RMK A01 T02700137  RH  044%=      5-min Rain = 0
KCA2 240932Z 12009KT 27/14 A2977 RMK A01 T02710137  RH  044%=      5-min Rain = 0
KCA2 240933Z 11010KT 27/14 A2977 RMK A01 T02720137  RH  044%=      5-min Rain = 0
KCA2 240934Z 12010KT 27/14 A2977 RMK A01 T02710137  RH  044%=      5-min Rain = 0
KCA2 240935Z 11013KT 27/14 A2977 RMK A01 T02720137  RH  044%=      5-min Rain = 0
KCA2 240936Z 12011KT 27/14 A2977 RMK A01 T02720138  RH  044%=      5-min Rain = 0
KCA2 240937Z 13015KT 27/14 A2977 RMK A01 T02720139  RH  044%=      5-min Rain = 0
KCA2 240938Z 13012G17KT 27/14 A2977 RMK A01 T02720139  RH  044%=      5-min Rain = 0
KCA2 240939Z 13012KT 27/14 A2977 RMK A01 T02720139  RH  044%=      5-min Rain = 0
KCA2 240940Z 13012KT 27/14 A2977 RMK A01 T02720139  RH  044%=      5-min Rain = 0
KCA2 240941Z 13011KT 27/14 A2977 RMK A01 T02710140  RH  044%=      5-min Rain = 0
KCA2 240942Z 12011KT 27/14 A2977 RMK A01 T02710140  RH  045%=      5-min Rain = 0
KCA2 240943Z 13012KT 27/14 A2977 RMK A01 T02710140  RH  045%=      5-min Rain = 0
KCA2 240944Z 12010KT 27/14 A2978 RMK A01 T02710140  RH  045%=      5-min Rain = 0
KCA2 240945Z 14012G17KT 27/14 A2978 RMK A01 T02710140  RH  045%=      5-min Rain = 0
KCA2 240946Z 12014KT 27/14 A2978 RMK A01 T02710140  RH  045%=      5-min Rain = 0
KCA2 240947Z 12012KT 27/14 A2978 RMK A01 T02710140  RH  045%=      5-min Rain = 0
KCA2 240948Z 13011KT 27/14 A2978 RMK A01 T02710140  RH  044%=      5-min Rain = 0
KCA2 240949Z 12012KT 27/14 A2978 RMK A01 T02710140  RH  044%=      5-min Rain = 0
KCA2 240950Z 12009KT 27/14 A2978 RMK A01 T02710140  RH  044%=      5-min Rain = 0
KCA2 240951Z 11009KT 27/14 A2978 RMK A01 T02710140  RH  044%=      5-min Rain = 0
KCA2 240952Z 12007KT 27/14 A2978 RMK A01 T02710140  RH  044%=      5-min Rain = 0
KCA2 240953Z 12010KT 27/14 A2978 RMK A01 T02710140  RH  044%=      5-min Rain = 0
KCA2 240954Z 12008KT 27/14 A2978 RMK A01 T02710140  RH  045%=      5-min Rain = 0
KCA2 240955Z 13008KT 27/14 A2978 RMK A01 T02710140  RH  044%=      5-min Rain = 0
KCA2 240956Z 13010KT 27/14 A2978 RMK A01 T02700140  RH  045%=      5-min Rain = 0
KCA2 240957Z 13012KT 27/14 A2978 RMK A01 T02700139  RH  045%=      5-min Rain = 0
KCA2 240958Z 12009KT 27/14 A2978 RMK A01 T02710139  RH  044%=      5-min Rain = 0
KCA2 240959Z 12009KT 27/14 A2978 RMK A01 T02700139  RH  044%=      5-min Rain = 0
KCA2 241000Z 13010KT 27/14 A2978 RMK A01 T02700139  RH  044%=      5-min Rain = 0
KCA2 241001Z 12012KT 27/14 A2978 RMK A01 T02700140  RH  045%=      5-min Rain = 0
KCA2 241002Z 13008KT 27/14 A2978 RMK A01 T02700139  RH  045%=      5-min Rain = 0
KCA2 241003Z 13009KT 27/14 A2978 RMK A01 T02700140  RH  045%=      5-min Rain = 0
KCA2 241004Z 13010KT 27/14 A2978 RMK A01 T02680140  RH  045%=      5-min Rain = 0
KCA2 241005Z 13007KT 27/14 A2978 RMK A01 T02670140  RH  046%=      5-min Rain = 0
KCA2 241006Z 13010KT 27/14 A2978 RMK A01 T02670141  RH  046%=      5-min Rain = 0
KCA2 241007Z 12013KT 27/14 A2978 RMK A01 T02650140  RH  046%=      5-min Rain = 0
KCA2 241008Z 12011G16KT 27/14 A2978 RMK A01 T02660140  RH  046%=      5-min Rain = 0
KCA2 241009Z 12010KT 27/14 A2978 RMK A01 T02670140  RH  046%=      5-min Rain = 0
KCA2 241010Z 13010KT 27/14 A2978 RMK A01 T02670140  RH  045%=      5-min Rain = 0
KCA2 241011Z 13010KT 27/14 A2978 RMK A01 T02670140  RH  045%=      5-min Rain = 0
KCA2 241012Z 13009KT 27/14 A2978 RMK A01 T02670140  RH  046%=      5-min Rain = 0
KCA2 241013Z 13009KT 27/14 A2978 RMK A01 T02670140  RH  046%=      5-min Rain = 0
KCA2 241014Z 13008KT 27/14 A2978 RMK A01 T02660140  RH  046%=      5-min Rain = 0
KCA2 241015Z 13008KT 27/14 A2978 RMK A01 T02660141  RH  046%=      5-min Rain = 0
KCA2 241016Z 14008KT 27/14 A2978 RMK A01 T02650140  RH  046%=      5-min Rain = 0
KCA2 241017Z 14008KT 27/14 A2979 RMK A01 T02650141  RH  047%=      5-min Rain = 0
KCA2 241018Z 14006KT 26/14 A2979 RMK A01 T02640141  RH  047%=      5-min Rain = 0
KCA2 241019Z 14007KT 26/14 A2979 RMK A01 T02630141  RH  047%=      5-min Rain = 0
KCA2 241020Z 14006KT 26/14 A2979 RMK A01 T02630141  RH  047%=      5-min Rain = 0
KCA2 241021Z 14006KT 26/14 A2979 RMK A01 T02630141  RH  047%=      5-min Rain = 0
KCA2 241022Z 14006KT 26/14 A2979 RMK A01 T02630141  RH  047%=      5-min Rain = 0
KCA2 241023Z 14005KT 26/14 A2979 RMK A01 T02620141  RH  047%=      5-min Rain = 0
KCA2 241024Z 14005KT 26/14 A2979 RMK A01 T02620142  RH  048%=      5-min Rain = 0
KCA2 241025Z 13006KT 26/14 A2979 RMK A01 T02610142  RH  048%=      5-min Rain = 0
KCA2 241026Z 13005KT 26/14 A2979 RMK A01 T02600142  RH  048%=      5-min Rain = 0
KCA2 241027Z 13006KT 26/14 A2979 RMK A01 T02600142  RH  048%=      5-min Rain = 0
KCA2 241028Z 13006KT 26/14 A2979 RMK A01 T02600142  RH  048%=      5-min Rain = 0
KCA2 241029Z 12006KT 26/14 A2979 RMK A01 T02600142  RH  048%=      5-min Rain = 0
KCA2 241030Z 13006KT 26/14 A2979 RMK A01 T02600142  RH  048%=      5-min Rain = 0
KCA2 241031Z 13006KT 26/14 A2979 RMK A01 T02600142  RH  048%=      5-min Rain = 0
KCA2 241032Z 13005KT 26/14 A2979 RMK A01 T02590142  RH  048%=      5-min Rain = 0
KCA2 241033Z 12006KT 26/14 A2979 RMK A01 T02590142  RH  048%=      5-min Rain = 0
KCA2 241034Z 13005KT 26/14 A2979 RMK A01 T02590141  RH  048%=      5-min Rain = 0
KCA2 241035Z 13006KT 26/14 A2979 RMK A01 T02590142  RH  048%=      5-min Rain = 0
KCA2 241036Z 12006KT 26/14 A2979 RMK A01 T02590141  RH  048%=      5-min Rain = 0
KCA2 241037Z 12006KT 26/14 A2979 RMK A01 T02590141  RH  048%=      5-min Rain = 0
KCA2 241038Z 12005KT 26/14 A2979 RMK A01 T02590141  RH  048%=      5-min Rain = 0
KCA2 241039Z 12005KT 26/14 A2979 RMK A01 T02590141  RH  048%=      5-min Rain = 0
KCA2 241040Z 12005KT 26/14 A2979 RMK A01 T02590140  RH  048%=      5-min Rain = 0
KCA2 241041Z 13005KT 26/14 A2979 RMK A01 T02590140  RH  048%=      5-min Rain = 0
KCA2 241042Z 13004KT 26/14 A2979 RMK A01 T02590140  RH  048%=      5-min Rain = 0
KCA2 241043Z 13004KT 26/14 A2979 RMK A01 T02590140  RH  048%=      5-min Rain = 0
KCA2 241044Z 13004KT 26/14 A2979 RMK A01 T02590141  RH  048%=      5-min Rain = 0
KCA2 241045Z 13004KT 26/14 A2979 RMK A01 T02580140  RH  048%=      5-min Rain = 0
KCA2 241046Z 13004KT 26/14 A2979 RMK A01 T02580140  RH  048%=      5-min Rain = 0
KCA2 241047Z 14004KT 26/14 A2979 RMK A01 T02580140  RH  048%=      5-min Rain = 0
KCA2 241048Z 14004KT 26/14 A2979 RMK A01 T02580140  RH  048%=      5-min Rain = 0
KCA2 241049Z 14003KT 26/14 A2979 RMK A01 T02580140  RH  048%=      5-min Rain = 0
KCA2 241050Z 14003KT 26/14 A2979 RMK A01 T02580140  RH  048%=      5-min Rain = 0
KCA2 241051Z 15003KT 26/14 A2979 RMK A01 T02580140  RH  048%=      5-min Rain = 0
KCA2 241052Z 15003KT 26/14 A2979 RMK A01 T02570140  RH  048%=      5-min Rain = 0
KCA2 241053Z 15003KT 26/14 A2979 RMK A01 T02570141  RH  049%=      5-min Rain = 0
KCA2 241054Z 15003KT 26/14 A2979 RMK A01 T02570140  RH  049%=      5-min Rain = 0
KCA2 241055Z 16003KT 26/14 A2979 RMK A01 T02560140  RH  049%=      5-min Rain = 0
KCA2 241056Z 16003KT 26/14 A2979 RMK A01 T02560140  RH  049%=      5-min Rain = 0
KCA2 241057Z 15002KT 26/14 A2979 RMK A01 T02560140  RH  049%=      5-min Rain = 0
KCA2 241058Z 15002KT 26/14 A2979 RMK A01 T02550140  RH  049%=      5-min Rain = 0
KCA2 241059Z 17000KT 26/14 A2979 RMK A01 T02550140  RH  049%=      5-min Rain = 0
KCA2 241100Z 00000KT 25/14 A2979 RMK A01 T02540140  RH  049%=      5-min Rain = 0
KCA2 241101Z 02000KT 25/14 A2979 RMK A01 T02540140  RH  049%=      5-min Rain = 0
KCA2 241102Z 35001KT 25/14 A2979 RMK A01 T02540139  RH  049%=      5-min Rain = 0
KCA2 241103Z 34003KT 25/14 A2979 RMK A01 T02530140  RH  049%=      5-min Rain = 0
KCA2 241104Z 33004KT 25/14 A2979 RMK A01 T02530138  RH  049%=      5-min Rain = 0
KCA2 241105Z 33004KT 25/14 A2979 RMK A01 T02530137  RH  048%=      5-min Rain = 0
KCA2 241106Z 33005KT 25/14 A2979 RMK A01 T02520136  RH  048%=      5-min Rain = 0
KCA2 241107Z 34006KT 25/14 A2979 RMK A01 T02510136  RH  049%=      5-min Rain = 0
KCA2 241108Z 34005KT 25/14 A2979 RMK A01 T02510136  RH  049%=      5-min Rain = 0
KCA2 241109Z 33005KT 25/14 A298 RMK A01 T02510137  RH  049%=      5-min Rain = 0
KCA2 241110Z 33006KT 25/14 A2979 RMK A01 T02510138  RH  049%=      5-min Rain = 0
KCA2 241111Z 34006KT 25/14 A2979 RMK A01 T02500138  RH  050%=      5-min Rain = 0
KCA2 241112Z 33007KT 25/14 A2979 RMK A01 T02500138  RH  050%=      5-min Rain = 0
KCA2 241113Z 34007KT 25/14 A2979 RMK A01 T02500138  RH  050%=      5-min Rain = 0
KCA2 241114Z 34007KT 25/14 A2979 RMK A01 T02490138  RH  050%=      5-min Rain = 0
KCA2 241115Z 33006KT 25/14 A298 RMK A01 T02490138  RH  050%=      5-min Rain = 0
KCA2 241116Z 32005KT 25/14 A298 RMK A01 T02480138  RH  050%=      5-min Rain = 0
KCA2 241117Z 32004KT 25/14 A298 RMK A01 T02480138  RH  050%=      5-min Rain = 0
KCA2 241118Z 33004KT 25/14 A298 RMK A01 T02480138  RH  050%=      5-min Rain = 0
KCA2 241119Z 34004KT 25/14 A298 RMK A01 T02470138  RH  051%=      5-min Rain = 0
KCA2 241120Z 32004KT 25/14 A298 RMK A01 T02470138  RH  051%=      5-min Rain = 0
KCA2 241121Z 32004KT 25/14 A298 RMK A01 T02470139  RH  051%=      5-min Rain = 0
KCA2 241122Z 32003KT 25/14 A298 RMK A01 T02470139  RH  051%=      5-min Rain = 0
KCA2 241123Z 34002KT 25/14 A298 RMK A01 T02460138  RH  051%=      5-min Rain = 0
KCA2 241124Z 35003KT 25/14 A298 RMK A01 T02460138  RH  051%=      5-min Rain = 0
KCA2 241125Z 35004KT 25/14 A298 RMK A01 T02460138  RH  051%=      5-min Rain = 0
KCA2 241126Z 35004KT 25/14 A298 RMK A01 T02470139  RH  051%=      5-min Rain = 0
KCA2 241127Z 36005KT 25/14 A298 RMK A01 T02470139  RH  051%=      5-min Rain = 0
KCA2 241128Z 01004KT 25/14 A298 RMK A01 T02470138  RH  051%=      5-min Rain = 0
KCA2 241129Z 01005KT 25/14 A298 RMK A01 T02470138  RH  051%=      5-min Rain = 0
KCA2 241130Z 01006KT 25/14 A298 RMK A01 T02470138  RH  051%=      5-min Rain = 0
KCA2 241131Z 01006KT 25/14 A298 RMK A01 T02470138  RH  051%=      5-min Rain = 0
KCA2 241132Z 00007KT 25/14 A298 RMK A01 T02470138  RH  051%=      5-min Rain = 0
KCA2 241133Z 36006KT 25/14 A298 RMK A01 T02470139  RH  051%=      5-min Rain = 0
KCA2 241134Z 00004KT 25/14 A298 RMK A01 T02470139  RH  051%=      5-min Rain = 0
KCA2 241135Z 00005KT 25/14 A298 RMK A01 T02470138  RH  051%=      5-min Rain = 0
KCA2 241136Z 01005KT 25/14 A298 RMK A01 T02470139  RH  051%=      5-min Rain = 0
KCA2 241137Z 01006KT 25/14 A298 RMK A01 T02470139  RH  051%=      5-min Rain = 0
KCA2 241138Z 01005KT 25/14 A298 RMK A01 T02470139  RH  051%=      5-min Rain = 0
KCA2 241139Z 01004KT 25/14 A298 RMK A01 T02470139  RH  051%=      5-min Rain = 0
KCA2 241140Z 01004KT 25/14 A298 RMK A01 T02470138  RH  051%=      5-min Rain = 0
KCA2 241141Z 00004KT 25/14 A298 RMK A01 T02470139  RH  051%=      5-min Rain = 0
KCA2 241142Z 32003KT 25/14 A298 RMK A01 T02470139  RH  051%=      5-min Rain = 0
KCA2 241143Z 26002KT 25/14 A298 RMK A01 T02460139  RH  051%=      5-min Rain = 0
KCA2 241144Z 24003KT 25/14 A298 RMK A01 T02450139  RH  052%=      5-min Rain = 0
KCA2 241145Z 26004KT 24/14 A298 RMK A01 T02430139  RH  052%=      5-min Rain = 0
KCA2 241146Z 26004KT 24/14 A298 RMK A01 T02410139  RH  053%=      5-min Rain = 0
KCA2 241147Z 26004KT 24/14 A298 RMK A01 T02400139  RH  053%=      5-min Rain = 0
KCA2 241148Z 27004KT 24/14 A298 RMK A01 T02390139  RH  053%=      5-min Rain = 0
KCA2 241149Z 28005KT 24/14 A298 RMK A01 T02390139  RH  054%=      5-min Rain = 0
KCA2 241150Z 29005KT 24/14 A298 RMK A01 T02380139  RH  054%=      5-min Rain = 0
KCA2 241151Z 29006KT 24/14 A298 RMK A01 T02380139  RH  054%=      5-min Rain = 0
KCA2 241152Z 30005KT 24/14 A298 RMK A01 T02380139  RH  054%=      5-min Rain = 0
KCA2 241153Z 30005KT 24/14 A298 RMK A01 T02380139  RH  054%=      5-min Rain = 0
KCA2 241154Z 29005KT 24/14 A298 RMK A01 T02390139  RH  054%=      5-min Rain = 0
KCA2 241155Z 28005KT 24/14 A298 RMK A01 T02380140  RH  054%=      5-min Rain = 0
KCA2 241156Z 28004KT 24/14 A2981 RMK A01 T02370139  RH  054%=      5-min Rain = 0
KCA2 241157Z 28005KT 24/14 A2981 RMK A01 T02370139  RH  054%=      5-min Rain = 0
KCA2 241158Z 28005KT 24/14 A2981 RMK A01 T02370139  RH  054%=      5-min Rain = 0
KCA2 241159Z 29006KT 24/14 A2981 RMK A01 T02380139  RH  054%=      5-min Rain = 0
KCA2 241200Z 29006KT 24/14 A2981 RMK A01 T02380140  RH  054%=      5-min Rain = 0
KCA2 241201Z 29006KT 24/14 A2981 RMK A01 T02380140  RH  054%=      5-min Rain = 0
KCA2 241202Z 29006KT 24/14 A2981 RMK A01 T02380140  RH  054%=      5-min Rain = 0
KCA2 241203Z 29007KT 24/14 A2981 RMK A01 T02370139  RH  054%=      5-min Rain = 0
KCA2 241204Z 28007KT 24/14 A2981 RMK A01 T02370139  RH  054%=      5-min Rain = 0
KCA2 241205Z 28006KT 24/14 A2981 RMK A01 T02380139  RH  054%=      5-min Rain = 0
KCA2 241206Z 28007KT 24/14 A2981 RMK A01 T02380139  RH  054%=      5-min Rain = 0
KCA2 241207Z 29007KT 24/14 A2981 RMK A01 T02380139  RH  054%=      5-min Rain = 0
KCA2 241208Z 29007KT 24/14 A2981 RMK A01 T02380139  RH  054%=      5-min Rain = 0
KCA2 241209Z 28008KT 24/14 A2981 RMK A01 T02370139  RH  054%=      5-min Rain = 0
KCA2 241210Z 29008KT 24/14 A2981 RMK A01 T02370140  RH  054%=      5-min Rain = 0
KCA2 241211Z 29007KT 24/14 A2981 RMK A01 T02370139  RH  054%=      5-min Rain = 0
KCA2 241212Z 29006KT 24/14 A2981 RMK A01 T02370140  RH  054%=      5-min Rain = 0
KCA2 241213Z 29006KT 24/14 A2981 RMK A01 T02370139  RH  054%=      5-min Rain = 0
KCA2 241214Z 29007KT 24/14 A2981 RMK A01 T02370140  RH  055%=      5-min Rain = 0
KCA2 241215Z 29007KT 24/14 A2981 RMK A01 T02360139  RH  055%=      5-min Rain = 0
KCA2 241216Z 29006KT 24/14 A2981 RMK A01 T02370140  RH  054%=      5-min Rain = 0
KCA2 241217Z 28006KT 24/14 A2981 RMK A01 T02370139  RH  054%=      5-min Rain = 0
KCA2 241218Z 29006KT 24/14 A2981 RMK A01 T02370140  RH  054%=      5-min Rain = 0
KCA2 241219Z 28006KT 24/14 A2981 RMK A01 T02370140  RH  054%=      5-min Rain = 0
KCA2 241220Z 29008KT 24/14 A2981 RMK A01 T02370140  RH  054%=      5-min Rain = 0
KCA2 241221Z 28008KT 24/14 A2981 RMK A01 T02370140  RH  055%=      5-min Rain = 0
KCA2 241222Z 28008KT 24/14 A2981 RMK A01 T02360140  RH  055%=      5-min Rain = 0
KCA2 241223Z 28007KT 24/14 A2981 RMK A01 T02360140  RH  055%=      5-min Rain = 0
KCA2 241224Z 28006KT 24/14 A2981 RMK A01 T02350140  RH  055%=      5-min Rain = 0
KCA2 241225Z 28006KT 24/14 A2982 RMK A01 T02350140  RH  055%=      5-min Rain = 0
KCA2 241226Z 28006KT 24/14 A2982 RMK A01 T02350140  RH  055%=      5-min Rain = 0
KCA2 241227Z 28007KT 24/14 A2982 RMK A01 T02350140  RH  055%=      5-min Rain = 0
KCA2 241228Z 28007KT 24/14 A2982 RMK A01 T02350140  RH  055%=      5-min Rain = 0
KCA2 241229Z 28008KT 24/14 A2981 RMK A01 T02360140  RH  055%=      5-min Rain = 0
KCA2 241230Z 28008KT 24/14 A2981 RMK A01 T02360140  RH  055%=      5-min Rain = 0
KCA2 241231Z 28007KT 24/14 A2981 RMK A01 T02360140  RH  055%=      5-min Rain = 0
KCA2 241232Z 28007KT 24/14 A2981 RMK A01 T02360140  RH  055%=      5-min Rain = 0
KCA2 241233Z 29007KT 24/14 A2981 RMK A01 T02350140  RH  055%=      5-min Rain = 0
KCA2 241234Z 28006KT 24/14 A2981 RMK A01 T02350141  RH  055%=      5-min Rain = 0
KCA2 241235Z 28006KT 24/14 A2981 RMK A01 T02360141  RH  055%=      5-min Rain = 0
KCA2 241236Z 28007KT 24/14 A2981 RMK A01 T02350141  RH  055%=      5-min Rain = 0
KCA2 241237Z 28007KT 24/14 A2981 RMK A01 T02360140  RH  055%=      5-min Rain = 0
KCA2 241238Z 28007KT 24/14 A2981 RMK A01 T02360141  RH  055%=      5-min Rain = 0
KCA2 241239Z 28006KT 24/14 A2981 RMK A01 T02370141  RH  055%=      5-min Rain = 0
KCA2 241240Z 28006KT 24/14 A2981 RMK A01 T02370141  RH  055%=      5-min Rain = 0
KCA2 241241Z 28005KT 24/14 A2981 RMK A01 T02370141  RH  055%=      5-min Rain = 0
KCA2 241242Z 28005KT 24/14 A2981 RMK A01 T02370141  RH  055%=      5-min Rain = 0
KCA2 241243Z 29006KT 24/14 A2981 RMK A01 T02370142  RH  055%=      5-min Rain = 0
KCA2 241244Z 29006KT 24/14 A2981 RMK A01 T02380141  RH  055%=      5-min Rain = 0
KCA2 241245Z 29007KT 24/14 A2981 RMK A01 T02380141  RH  054%=      5-min Rain = 0
KCA2 241246Z 29007KT 24/14 A2981 RMK A01 T02390141  RH  054%=      5-min Rain = 0
KCA2 241247Z 29007KT 24/14 A2981 RMK A01 T02390141  RH  054%=      5-min Rain = 0
KCA2 241248Z 29007KT 24/14 A2981 RMK A01 T02390141  RH  054%=      5-min Rain = 0
KCA2 241249Z 29006KT 24/14 A2981 RMK A01 T02390141  RH  054%=      5-min Rain = 0
KCA2 241250Z 29006KT 24/14 A2981 RMK A01 T02390141  RH  054%=      5-min Rain = 0
KCA2 241251Z 29006KT 24/14 A2981 RMK A01 T02390142  RH  054%=      5-min Rain = 0
KCA2 241252Z 29007KT 24/14 A2981 RMK A01 T02390142  RH  054%=      5-min Rain = 0
KCA2 241253Z 29006KT 24/14 A2981 RMK A01 T02400142  RH  054%=      5-min Rain = 0
KCA2 241254Z 29007KT 24/14 A2981 RMK A01 T02400141  RH  054%=      5-min Rain = 0
KCA2 241255Z 28007KT 24/14 A2981 RMK A01 T02400141  RH  054%=      5-min Rain = 0
KCA2 241256Z 28006KT 24/14 A2981 RMK A01 T02410142  RH  054%=      5-min Rain = 0
KCA2 241257Z 28006KT 24/14 A2981 RMK A01 T02410142  RH  054%=      5-min Rain = 0
KCA2 241258Z 28006KT 24/14 A2981 RMK A01 T02410142  RH  054%=      5-min Rain = 0
KCA2 241259Z 28007KT 24/14 A2981 RMK A01 T02410141  RH  054%=      5-min Rain = 0
KCA2 241300Z 28007KT 24/14 A2981 RMK A01 T02410141  RH  053%=      5-min Rain = 0
KCA2 241301Z 28006KT 24/14 A2981 RMK A01 T02410141  RH  053%=      5-min Rain = 0
KCA2 241302Z 28007KT 24/14 A2981 RMK A01 T02410142  RH  054%=      5-min Rain = 0
KCA2 241303Z 28007KT 24/14 A2981 RMK A01 T02420142  RH  054%=      5-min Rain = 0
KCA2 241304Z 28006KT 24/14 A2981 RMK A01 T02420142  RH  054%=      5-min Rain = 0
KCA2 241305Z 29006KT 24/14 A2981 RMK A01 T02430143  RH  054%=      5-min Rain = 0
KCA2 241306Z 28007KT 24/14 A2982 RMK A01 T02430143  RH  053%=      5-min Rain = 0
KCA2 241307Z 28007KT 24/14 A2982 RMK A01 T02440142  RH  053%=      5-min Rain = 0
KCA2 241308Z 29007KT 24/14 A2982 RMK A01 T02440142  RH  053%=      5-min Rain = 0
KCA2 241309Z 28006KT 24/14 A2982 RMK A01 T02430142  RH  053%=      5-min Rain = 0
KCA2 241310Z 29006KT 24/14 A2982 RMK A01 T02430142  RH  053%=      5-min Rain = 0
KCA2 241311Z 29006KT 24/14 A2982 RMK A01 T02440143  RH  053%=      5-min Rain = 0
KCA2 241312Z 29005KT 25/14 A2982 RMK A01 T02450142  RH  053%=      5-min Rain = 0
KCA2 241313Z 29005KT 25/14 A2982 RMK A01 T02450143  RH  053%=      5-min Rain = 0
KCA2 241314Z 28006KT 25/14 A2982 RMK A01 T02460144  RH  053%=      5-min Rain = 0
KCA2 241315Z 28006KT 25/14 A2982 RMK A01 T02470143  RH  052%=      5-min Rain = 0
KCA2 241316Z 28007KT 25/14 A2982 RMK A01 T02470143  RH  052%=      5-min Rain = 0
KCA2 241317Z 28006KT 25/14 A2982 RMK A01 T02470143  RH  052%=      5-min Rain = 0
KCA2 241318Z 28006KT 25/14 A2982 RMK A01 T02470143  RH  052%=      5-min Rain = 0
KCA2 241319Z 28007KT 25/14 A2982 RMK A01 T02470143  RH  052%=      5-min Rain = 0
KCA2 241320Z 29007KT 25/14 A2982 RMK A01 T02470143  RH  052%=      5-min Rain = 0
KCA2 241321Z 29006KT 25/14 A2982 RMK A01 T02470143  RH  052%=      5-min Rain = 0
KCA2 241322Z 30006KT 25/14 A2982 RMK A01 T02470143  RH  052%=      5-min Rain = 0
KCA2 241323Z 29005KT 25/14 A2982 RMK A01 T02470143  RH  052%=      5-min Rain = 0
KCA2 241324Z 29006KT 25/14 A2982 RMK A01 T02470143  RH  052%=      5-min Rain = 0
KCA2 241325Z 29007KT 25/14 A2982 RMK A01 T02480143  RH  052%=      5-min Rain = 0
KCA2 241326Z 28006KT 25/14 A2982 RMK A01 T02480143  RH  052%=      5-min Rain = 0
KCA2 241327Z 29004KT 25/14 A2982 RMK A01 T02490144  RH  052%=      5-min Rain = 0
KCA2 241328Z 29005KT 25/15 A2982 RMK A01 T02500145  RH  052%=      5-min Rain = 0
KCA2 241329Z 30005KT 25/14 A2982 RMK A01 T02510144  RH  051%=      5-min Rain = 0
KCA2 241330Z 30006KT 25/14 A2982 RMK A01 T02510143  RH  051%=      5-min Rain = 0
KCA2 241331Z 29006KT 25/14 A2982 RMK A01 T02510142  RH  051%=      5-min Rain = 0
KCA2 241332Z 29006KT 25/14 A2982 RMK A01 T02510143  RH  051%=      5-min Rain = 0
KCA2 241333Z 28005KT 25/14 A2982 RMK A01 T02510143  RH  051%=      5-min Rain = 0
KCA2 241334Z 29005KT 25/14 A2982 RMK A01 T02520143  RH  051%=      5-min Rain = 0
KCA2 241335Z 28005KT 25/14 A2982 RMK A01 T02520144  RH  051%=      5-min Rain = 0
KCA2 241336Z 29005KT 25/14 A2982 RMK A01 T02540144  RH  051%=      5-min Rain = 0
KCA2 241337Z 30005KT 25/14 A2982 RMK A01 T02540143  RH  050%=      5-min Rain = 0
KCA2 241338Z 29005KT 25/14 A2982 RMK A01 T02540143  RH  050%=      5-min Rain = 0
KCA2 241339Z 29005KT 25/14 A2982 RMK A01 T02540142  RH  050%=      5-min Rain = 0
KCA2 241340Z 29005KT 25/14 A2982 RMK A01 T02540142  RH  050%=      5-min Rain = 0
KCA2 241341Z 28006KT 25/14 A2982 RMK A01 T02540143  RH  050%=      5-min Rain = 0
KCA2 241342Z 28006KT 26/14 A2982 RMK A01 T02550144  RH  050%=      5-min Rain = 0
KCA2 241343Z 28006KT 26/14 A2982 RMK A01 T02560143  RH  050%=      5-min Rain = 0
KCA2 241344Z 28006KT 26/14 A2982 RMK A01 T02560144  RH  050%=      5-min Rain = 0
KCA2 241345Z 29005KT 26/14 A2982 RMK A01 T02560144  RH  050%=      5-min Rain = 0
KCA2 241346Z 29005KT 26/14 A2982 RMK A01 T02560144  RH  050%=      5-min Rain = 0
KCA2 241347Z 28005KT 26/15 A2982 RMK A01 T02560145  RH  050%=      5-min Rain = 0
KCA2 241348Z 28005KT 26/15 A2982 RMK A01 T02560145  RH  050%=      5-min Rain = 0
KCA2 241349Z 27005KT 26/15 A2982 RMK A01 T02560146  RH  050%=      5-min Rain = 0
KCA2 241350Z 28005KT 26/14 A2982 RMK A01 T02560144  RH  050%=      5-min Rain = 0
KCA2 241351Z 28004KT 26/14 A2982 RMK A01 T02560144  RH  050%=      5-min Rain = 0
KCA2 241352Z 28005KT 26/14 A2982 RMK A01 T02570144  RH  050%=      5-min Rain = 0
KCA2 241353Z 28005KT 26/14 A2982 RMK A01 T02570143  RH  049%=      5-min Rain = 0
KCA2 241354Z 28006KT 26/14 A2982 RMK A01 T02580143  RH  049%=      5-min Rain = 0
KCA2 241355Z 27006KT 26/14 A2982 RMK A01 T02580142  RH  049%=      5-min Rain = 0
KCA2 241356Z 28007KT 26/14 A2982 RMK A01 T02580143  RH  049%=      5-min Rain = 0
KCA2 241357Z 28007KT 26/15 A2982 RMK A01 T02580145  RH  049%=      5-min Rain = 0
KCA2 241358Z 27006KT 26/15 A2982 RMK A01 T02590145  RH  049%=      5-min Rain = 0
KCA2 241359Z 28006KT 26/15 A2982 RMK A01 T02600145  RH  049%=      5-min Rain = 0
KCA2 241400Z 27007KT 26/15 A2982 RMK A01 T02610145  RH  049%=      5-min Rain = 0
KCA2 241401Z 28007KT 26/14 A2982 RMK A01 T02610144  RH  049%=      5-min Rain = 0
KCA2 241402Z 27006KT 26/14 A2982 RMK A01 T02600144  RH  049%=      5-min Rain = 0
KCA2 241403Z 28006KT 26/15 A2982 RMK A01 T02600146  RH  049%=      5-min Rain = 0
KCA2 241404Z 28005KT 26/15 A2982 RMK A01 T02610145  RH  049%=      5-min Rain = 0
KCA2 241405Z 28005KT 26/15 A2982 RMK A01 T02620145  RH  049%=      5-min Rain = 0
KCA2 241406Z 28006KT 26/15 A2982 RMK A01 T02630146  RH  049%=      5-min Rain = 0
KCA2 241407Z 27006KT 26/15 A2982 RMK A01 T02640146  RH  048%=      5-min Rain = 0
KCA2 241408Z 27006KT 26/15 A2982 RMK A01 T02640146  RH  048%=      5-min Rain = 0
KCA2 241409Z 29005KT 26/15 A2982 RMK A01 T02640146  RH  048%=      5-min Rain = 0
KCA2 241410Z 30007KT 27/15 A2982 RMK A01 T02650146  RH  048%=      5-min Rain = 0
KCA2 241411Z 30006KT 27/15 A2982 RMK A01 T02660145  RH  048%=      5-min Rain = 0
KCA2 241412Z 31007KT 27/15 A2982 RMK A01 T02660145  RH  047%=      5-min Rain = 0
KCA2 241413Z 31007KT 27/14 A2982 RMK A01 T02650144  RH  047%=      5-min Rain = 0
KCA2 241414Z 30007KT 27/14 A2982 RMK A01 T02660144  RH  047%=      5-min Rain = 0
KCA2 241415Z 30006KT 27/14 A2982 RMK A01 T02650144  RH  047%=      5-min Rain = 0
KCA2 241416Z 30006KT 27/15 A2982 RMK A01 T02650145  RH  047%=      5-min Rain = 0
KCA2 241417Z 30005KT 27/15 A2982 RMK A01 T02660145  RH  047%=      5-min Rain = 0
KCA2 241418Z 30005KT 27/15 A2982 RMK A01 T02660146  RH  048%=      5-min Rain = 0
KCA2 241419Z 29005KT 27/15 A2982 RMK A01 T02670145  RH  047%=      5-min Rain = 0
KCA2 241420Z 29004KT 27/15 A2982 RMK A01 T02680148  RH  048%=      5-min Rain = 0
KCA2 241421Z 30005KT 27/15 A2982 RMK A01 T02700147  RH  047%=      5-min Rain = 0
KCA2 241422Z 30005KT 27/15 A2982 RMK A01 T02700147  RH  047%=      5-min Rain = 0
KCA2 241423Z 30005KT 27/15 A2982 RMK A01 T02700147  RH  047%=      5-min Rain = 0
KCA2 241424Z 28005KT 27/15 A2982 RMK A01 T02700148  RH  047%=      5-min Rain = 0
KCA2 241425Z 29005KT 27/15 A2982 RMK A01 T02710150  RH  047%=      5-min Rain = 0
KCA2 241426Z 27005KT 27/15 A2982 RMK A01 T02730150  RH  047%=      5-min Rain = 0
KCA2 241427Z 29006KT 27/15 A2982 RMK A01 T02740149  RH  046%=      5-min Rain = 0
KCA2 241428Z 29006KT 27/15 A2982 RMK A01 T02740150  RH  047%=      5-min Rain = 0
KCA2 241429Z 30005KT 27/15 A2982 RMK A01 T02740151  RH  047%=      5-min Rain = 0
KCA2 241430Z 30006KT 27/15 A2982 RMK A01 T02740150  RH  047%=      5-min Rain = 0
KCA2 241431Z 29005KT 27/15 A2982 RMK A01 T02730149  RH  047%=      5-min Rain = 0
KCA2 241432Z 27006KT 27/15 A2982 RMK A01 T02730150  RH  047%=      5-min Rain = 0
KCA2 241433Z 28006KT 27/15 A2982 RMK A01 T02740151  RH  047%=      5-min Rain = 0
KCA2 241434Z 28005KT 27/15 A2982 RMK A01 T02740152  RH  047%=      5-min Rain = 0
KCA2 241435Z 29005KT 27/15 A2982 RMK A01 T02740153  RH  048%=      5-min Rain = 0
KCA2 241436Z 28003KT 27/15 A2982 RMK A01 T02740153  RH  048%=      5-min Rain = 0
KCA2 241437Z 27005KT 28/15 A2982 RMK A01 T02750153  RH  047%=      5-min Rain = 0
KCA2 241438Z 27005KT 28/15 A2982 RMK A01 T02760152  RH  047%=      5-min Rain = 0
KCA2 241439Z 26005KT 28/15 A2982 RMK A01 T02760154  RH  047%=      5-min Rain = 0
KCA2 241440Z 28004KT 28/16 A2982 RMK A01 T02760155  RH  048%=      5-min Rain = 0
KCA2 241441Z 30004KT 28/16 A2982 RMK A01 T02760155  RH  048%=      5-min Rain = 0
KCA2 241442Z 28004KT 28/16 A2982 RMK A01 T02770157  RH  048%=      5-min Rain = 0
KCA2 241443Z 29004KT 28/16 A2982 RMK A01 T02770156  RH  048%=      5-min Rain = 0
KCA2 241444Z 29006KT 28/16 A2982 RMK A01 T02780155  RH  047%=      5-min Rain = 0
KCA2 241445Z 28004KT 28/15 A2982 RMK A01 T02780154  RH  047%=      5-min Rain = 0
KCA2 241446Z 26005KT 28/16 A2982 RMK A01 T02780155  RH  047%=      5-min Rain = 0
KCA2 241447Z 26004KT 28/16 A2982 RMK A01 T02780156  RH  047%=      5-min Rain = 0
KCA2 241448Z 25002KT 28/16 A2982 RMK A01 T02780157  RH  048%=      5-min Rain = 0
KCA2 241449Z 26002KT 28/16 A2982 RMK A01 T02770156  RH  048%=      5-min Rain = 0
KCA2 241450Z 24003KT 28/16 A2982 RMK A01 T02780157  RH  048%=      5-min Rain = 0
KCA2 241451Z 24003KT 28/16 A2982 RMK A01 T02800158  RH  047%=      5-min Rain = 0
KCA2 241452Z 24005KT 28/16 A2982 RMK A01 T02820159  RH  047%=      5-min Rain = 0
KCA2 241453Z 23002KT 28/16 A2982 RMK A01 T02820160  RH  047%=      5-min Rain = 0
KCA2 241454Z 24003KT 28/16 A2982 RMK A01 T02830159  RH  047%=      5-min Rain = 0
KCA2 241455Z 26004KT 28/16 A2982 RMK A01 T02830159  RH  047%=      5-min Rain = 0
KCA2 241456Z 24003KT 28/16 A2982 RMK A01 T02830159  RH  047%=      5-min Rain = 0
KCA2 241457Z 24004KT 28/16 A2982 RMK A01 T02820160  RH  048%=      5-min Rain = 0
KCA2 241458Z 21004KT 28/16 A2982 RMK A01 T02830160  RH  047%=      5-min Rain = 0
KCA2 241459Z 16003KT 28/16 A2982 RMK A01 T02830161  RH  048%=      5-min Rain = 0
KCA2 241500Z 14002KT 29/16 A2982 RMK A01 T02850161  RH  047%=      5-min Rain = 0
KCA2 241501Z 11001KT 29/16 A2982 RMK A01 T02850162  RH  047%=      5-min Rain = 0
KCA2 241502Z 12002KT 29/16 A2982 RMK A01 T02850162  RH  047%=      5-min Rain = 0
KCA2 241503Z 14002KT 29/16 A2982 RMK A01 T02850161  RH  047%=      5-min Rain = 0
KCA2 241504Z 16001KT 29/16 A2982 RMK A01 T02850161  RH  047%=      5-min Rain = 0
KCA2 241505Z 23002KT 29/16 A2982 RMK A01 T02850163  RH  048%=      5-min Rain = 0
KCA2 241506Z 23002KT 29/16 A2982 RMK A01 T02860162  RH  047%=      5-min Rain = 0
KCA2 241507Z 24002KT 28/16 A2982 RMK A01 T02840163  RH  048%=      5-min Rain = 0
KCA2 241508Z 26002KT 28/16 A2982 RMK A01 T02840162  RH  048%=      5-min Rain = 0
KCA2 241509Z 25001KT 28/16 A2982 RMK A01 T02820161  RH  048%=      5-min Rain = 0
KCA2 241510Z 23001KT 28/16 A2982 RMK A01 T02810161  RH  048%=      5-min Rain = 0
KCA2 241511Z 00000KT 28/16 A2982 RMK A01 T02810161  RH  048%=      5-min Rain = 0
KCA2 241512Z 32000KT 28/16 A2982 RMK A01 T02810161  RH  048%=      5-min Rain = 0
KCA2 241513Z 02000KT 28/16 A2982 RMK A01 T02830161  RH  048%=      5-min Rain = 0
KCA2 241514Z 06001KT 29/16 A2982 RMK A01 T02850162  RH  047%=      5-min Rain = 0
KCA2 241515Z 14004KT 29/16 A2982 RMK A01 T02870163  RH  047%=      5-min Rain = 0
KCA2 241516Z 15004KT 29/16 A2982 RMK A01 T02910164  RH  046%=      5-min Rain = 0
KCA2 241517Z 12004KT 29/16 A2982 RMK A01 T02910164  RH  046%=      5-min Rain = 0
KCA2 241518Z 10004KT 29/17 A2982 RMK A01 T02910165  RH  046%=      5-min Rain = 0
KCA2 241519Z 08003KT 29/16 A2982 RMK A01 T02910164  RH  046%=      5-min Rain = 0
KCA2 241520Z 06002KT 29/16 A2982 RMK A01 T02890164  RH  047%=      5-min Rain = 0
KCA2 241521Z 04002KT 29/16 A2982 RMK A01 T02890163  RH  046%=      5-min Rain = 0
KCA2 241522Z 03003KT 29/16 A2982 RMK A01 T02900164  RH  046%=      5-min Rain = 0
KCA2 241523Z 04002KT 29/16 A2982 RMK A01 T02900163  RH  046%=      5-min Rain = 0
KCA2 241524Z 06004KT 29/17 A2982 RMK A01 T02900165  RH  047%=      5-min Rain = 0
KCA2 241525Z 06005KT 29/16 A2982 RMK A01 T02920164  RH  046%=      5-min Rain = 0
KCA2 241526Z 10004KT 29/17 A2982 RMK A01 T02930165  RH  046%=      5-min Rain = 0
KCA2 241527Z 12005KT 29/17 A2982 RMK A01 T02920166  RH  046%=      5-min Rain = 0
KCA2 241528Z 11003KT 29/17 A2982 RMK A01 T02940168  RH  046%=      5-min Rain = 0
KCA2 241529Z 15004KT 30/17 A2982 RMK A01 T02970168  RH  046%=      5-min Rain = 0
KCA2 241530Z 15004KT 30/17 A2982 RMK A01 T02990167  RH  045%=      5-min Rain = 0
KCA2 241531Z 14004KT 30/17 A2982 RMK A01 T02980166  RH  045%=      5-min Rain = 0
KCA2 241532Z 12004KT 30/17 A2982 RMK A01 T02970167  RH  045%=      5-min Rain = 0
KCA2 241533Z 12002KT 30/17 A2982 RMK A01 T02970165  RH  045%=      5-min Rain = 0
KCA2 241534Z 13003KT 30/17 A2982 RMK A01 T02960166  RH  046%=      5-min Rain = 0
KCA2 241535Z 13004KT 30/17 A2982 RMK A01 T02960167  RH  046%=      5-min Rain = 0
KCA2 241536Z 11004KT 30/17 A2982 RMK A01 T02960166  RH  045%=      5-min Rain = 0
KCA2 241537Z 11003KT 30/17 A2982 RMK A01 T02970166  RH  045%=      5-min Rain = 0
KCA2 241538Z 11003KT 30/17 A2982 RMK A01 T02980166  RH  045%=      5-min Rain = 0
KCA2 241539Z 14005KT 30/17 A2982 RMK A01 T03000166  RH  045%=      5-min Rain = 0
KCA2 241540Z 14004KT 30/17 A2982 RMK A01 T03010166  RH  044%=      5-min Rain = 0
KCA2 241541Z 13004KT 30/17 A2982 RMK A01 T03000167  RH  045%=      5-min Rain = 0
KCA2 241542Z 12004KT 30/17 A2982 RMK A01 T02990166  RH  045%=      5-min Rain = 0
KCA2 241543Z 13004KT 30/17 A2982 RMK A01 T03010166  RH  044%=      5-min Rain = 0
KCA2 241544Z 15003KT 30/17 A2981 RMK A01 T03020165  RH  044%=      5-min Rain = 0
KCA2 241545Z 15004KT 30/17 A2981 RMK A01 T03030165  RH  044%=      5-min Rain = 0
KCA2 241546Z 07004KT 30/17 A2981 RMK A01 T03040166  RH  044%=      5-min Rain = 0
KCA2 241547Z 05004KT 31/17 A2981 RMK A01 T03060165  RH  043%=      5-min Rain = 0
KCA2 241548Z 04005KT 31/17 A2981 RMK A01 T03050165  RH  043%=      5-min Rain = 0
KCA2 241549Z 05003KT 30/16 A2981 RMK A01 T03020164  RH  043%=      5-min Rain = 0
KCA2 241550Z 02005KT 30/16 A2981 RMK A01 T03010164  RH  044%=      5-min Rain = 0
KCA2 241551Z 02006KT 30/16 A2981 RMK A01 T03020164  RH  043%=      5-min Rain = 0
KCA2 241552Z 36004KT 30/16 A2981 RMK A01 T03010163  RH  043%=      5-min Rain = 0
KCA2 241553Z 34004KT 30/16 A2981 RMK A01 T03000163  RH  044%=      5-min Rain = 0
KCA2 241554Z 33004KT 30/16 A2981 RMK A01 T03000163  RH  044%=      5-min Rain = 0
KCA2 241555Z 34004KT 30/16 A2981 RMK A01 T03000164  RH  044%=      5-min Rain = 0
KCA2 241556Z 33005KT 30/17 A2981 RMK A01 T03040165  RH  043%=      5-min Rain = 0
KCA2 241557Z 33005KT 30/16 A2981 RMK A01 T03030164  RH  043%=      5-min Rain = 0
KCA2 241558Z 32003KT 30/16 A2981 RMK A01 T03020162  RH  043%=      5-min Rain = 0
KCA2 241559Z 30002KT 30/16 A2981 RMK A01 T02990162  RH  044%=      5-min Rain = 0
KCA2 241600Z 33004KT 30/16 A2981 RMK A01 T02970162  RH  044%=      5-min Rain = 0
KCA2 241601Z 33003KT 30/16 A2981 RMK A01 T02980162  RH  044%=      5-min Rain = 0
KCA2 241602Z 30002KT 30/16 A2981 RMK A01 T02970162  RH  044%=      5-min Rain = 0
KCA2 241603Z 32005KT 30/16 A2981 RMK A01 T02980164  RH  044%=      5-min Rain = 0
KCA2 241604Z 33005KT 30/16 A2981 RMK A01 T03000163  RH  043%=      5-min Rain = 0
KCA2 241605Z 33004KT 30/16 A2981 RMK A01 T02990163  RH  044%=      5-min Rain = 0
KCA2 241606Z 34002KT 30/16 A2981 RMK A01 T02990162  RH  044%=      5-min Rain = 0
KCA2 241607Z 35000KT 30/16 A2981 RMK A01 T02980161  RH  044%=      5-min Rain = 0
KCA2 241608Z 16001KT 30/16 A2981 RMK A01 T02990162  RH  044%=      5-min Rain = 0
KCA2 241609Z 22002KT 30/16 A2981 RMK A01 T03020163  RH  043%=      5-min Rain = 0
KCA2 241610Z 22003KT 30/16 A2981 RMK A01 T03030162  RH  043%=      5-min Rain = 0
KCA2 241611Z 19002KT 30/16 A2981 RMK A01 T03020162  RH  043%=      5-min Rain = 0
KCA2 241612Z 22002KT 30/16 A2981 RMK A01 T03010163  RH  043%=      5-min Rain = 0
KCA2 241613Z 25002KT 30/16 A2981 RMK A01 T03010163  RH  043%=      5-min Rain = 0
KCA2 241614Z 28004KT 30/16 A2981 RMK A01 T03020164  RH  043%=      5-min Rain = 0
KCA2 241615Z 30006KT 30/16 A2981 RMK A01 T03030164  RH  043%=      5-min Rain = 0
KCA2 241616Z 31005KT 30/16 A2981 RMK A01 T03040164  RH  043%=      5-min Rain = 0
KCA2 241617Z 28005KT 31/17 A2981 RMK A01 T03070165  RH  042%=      5-min Rain = 0
KCA2 241618Z 27007KT 31/16 A2981 RMK A01 T03080164  RH  042%=      5-min Rain = 0
KCA2 241619Z 29006KT 31/16 A2981 RMK A01 T03070163  RH  042%=      5-min Rain = 0
KCA2 241620Z 29009KT 31/16 A2981 RMK A01 T03070163  RH  042%=      5-min Rain = 0
KCA2 241621Z 29007KT 31/16 A2981 RMK A01 T03080163  RH  042%=      5-min Rain = 0
KCA2 241622Z 27006KT 31/16 A2981 RMK A01 T03100164  RH  041%=      5-min Rain = 0
KCA2 241623Z 25005KT 31/17 A2981 RMK A01 T03120165  RH  041%=      5-min Rain = 0
KCA2 241624Z 26004KT 31/16 A2981 RMK A01 T03140163  RH  040%=      5-min Rain = 0
KCA2 241625Z 27005KT 31/16 A2981 RMK A01 T03110160  RH  040%=      5-min Rain = 0
KCA2 241626Z 25007KT 31/16 A2981 RMK A01 T03100159  RH  040%=      5-min Rain = 0
KCA2 241627Z 24006KT 31/16 A2981 RMK A01 T03090160  RH  041%=      5-min Rain = 0
KCA2 241628Z 28007KT 31/16 A2981 RMK A01 T03120162  RH  040%=      5-min Rain = 0
KCA2 241629Z 28005KT 31/16 A2981 RMK A01 T03140160  RH  039%=      5-min Rain = 0
KCA2 241630Z 31003KT 31/16 A2981 RMK A01 T03120158  RH  039%=      5-min Rain = 0
KCA2 241631Z 32002KT 31/16 A2981 RMK A01 T03110158  RH  040%=      5-min Rain = 0
KCA2 241632Z 34002KT 31/16 A2981 RMK A01 T03100158  RH  040%=      5-min Rain = 0
KCA2 241633Z 32003G8KT 31/16 A2981 RMK A01 T03100157  RH  040%=      5-min Rain = 0
KCA2 241634Z 32005KT 31/15 A2981 RMK A01 T03120150  RH  038%=      5-min Rain = 0
KCA2 241635Z 31008KT 31/15 A2981 RMK A01 T03130153  RH  038%=      5-min Rain = 0
KCA2 241636Z 29005KT 32/15 A2981 RMK A01 T03150149  RH  037%=      5-min Rain = 0
KCA2 241637Z 31005KT 31/15 A2981 RMK A01 T03120151  RH  038%=      5-min Rain = 0
KCA2 241638Z 27009G15KT 31/15 A2981 RMK A01 T03100152  RH  038%=      5-min Rain = 0
KCA2 241639Z 27007KT 31/15 A2981 RMK A01 T03120152  RH  038%=      5-min Rain = 0
KCA2 241640Z 27007KT 31/15 A2981 RMK A01 T03120151  RH  038%=      5-min Rain = 0
KCA2 241641Z 26004KT 31/15 A2981 RMK A01 T03100150  RH  038%=      5-min Rain = 0
KCA2 241642Z 28006KT 31/15 A2981 RMK A01 T03090151  RH  038%=      5-min Rain = 0
KCA2 241643Z 28009KT 31/15 A2981 RMK A01 T03130150  RH  037%=      5-min Rain = 0
KCA2 241644Z 28009KT 32/15 A2981 RMK A01 T03180150  RH  036%=      5-min Rain = 0
KCA2 241645Z 28009KT 32/15 A2981 RMK A01 T03190149  RH  036%=      5-min Rain = 0
KCA2 241646Z 28007KT 32/15 A2981 RMK A01 T03180148  RH  036%=      5-min Rain = 0
KCA2 241647Z 28007KT 32/15 A2981 RMK A01 T03190151  RH  036%=      5-min Rain = 0
KCA2 241648Z 31005KT 32/15 A2981 RMK A01 T03210151  RH  036%=      5-min Rain = 0
KCA2 241649Z 25006KT 32/15 A2981 RMK A01 T03200151  RH  036%=      5-min Rain = 0
KCA2 241650Z 26006KT 32/15 A2981 RMK A01 T03190150  RH  036%=      5-min Rain = 0
KCA2 241651Z 26008KT 32/15 A2981 RMK A01 T03180151  RH  037%=      5-min Rain = 0
KCA2 241652Z 29010KT 32/15 A2981 RMK A01 T03190150  RH  036%=      5-min Rain = 0
KCA2 241653Z 30010KT 32/14 A2981 RMK A01 T03220140  RH  033%=      5-min Rain = 0
KCA2 241654Z 31007KT 32/15 A2981 RMK A01 T03210146  RH  035%=      5-min Rain = 0
KCA2 241655Z 33010KT 32/15 A2981 RMK A01 T03200145  RH  035%=      5-min Rain = 0
KCA2 241656Z 33008KT 32/14 A2981 RMK A01 T03170144  RH  035%=      5-min Rain = 0
KCA2 241657Z 32008KT 32/15 A2981 RMK A01 T03150145  RH  036%=      5-min Rain = 0
KCA2 241658Z 34003KT 32/14 A2981 RMK A01 T03150144  RH  036%=      5-min Rain = 0
KCA2 241659Z 29009KT 32/15 A2981 RMK A01 T03150147  RH  036%=      5-min Rain = 0
KCA2 241700Z 28008KT 32/15 A2981 RMK A01 T03150148  RH  036%=      5-min Rain = 0
KCA2 241701Z 27006KT 31/15 A2981 RMK A01 T03140148  RH  037%=      5-min Rain = 0
KCA2 241702Z 29005KT 31/15 A2981 RMK A01 T03130148  RH  037%=      5-min Rain = 0
KCA2 241703Z 31003KT 31/15 A2981 RMK A01 T03130147  RH  037%=      5-min Rain = 0
KCA2 241704Z 34006KT 31/14 A2981 RMK A01 T03130144  RH  036%=      5-min Rain = 0
KCA2 241705Z 33005KT 31/14 A2981 RMK A01 T03140144  RH  036%=      5-min Rain = 0
KCA2 241706Z 31005KT 32/14 A2981 RMK A01 T03150143  RH  035%=      5-min Rain = 0
KCA2 241707Z 32004KT 31/14 A2981 RMK A01 T03140142  RH  035%=      5-min Rain = 0
KCA2 241708Z 30007KT 31/14 A2981 RMK A01 T03140143  RH  035%=      5-min Rain = 0
KCA2 241709Z 30006KT 32/14 A2981 RMK A01 T03160137  RH  034%=      5-min Rain = 0
KCA2 241710Z 30004KT 32/14 A2981 RMK A01 T03170137  RH  034%=      5-min Rain = 0
KCA2 241711Z 31006KT 32/14 A2981 RMK A01 T03190139  RH  034%=      5-min Rain = 0
KCA2 241712Z 30008KT 33/14 A2981 RMK A01 T03250140  RH  033%=      5-min Rain = 0
KCA2 241713Z 33011KT 33/14 A2981 RMK A01 T03270138  RH  032%=      5-min Rain = 0
KCA2 241714Z 33012KT 33/14 A2981 RMK A01 T03260135  RH  031%=      5-min Rain = 0
KCA2 241715Z 33008KT 32/14 A2981 RMK A01 T03230135  RH  032%=      5-min Rain = 0
KCA2 241716Z 33007KT 32/14 A2981 RMK A01 T03240135  RH  032%=      5-min Rain = 0
KCA2 241717Z 32007KT 32/14 A2981 RMK A01 T03240136  RH  032%=      5-min Rain = 0
KCA2 241718Z 32005KT 32/14 A2981 RMK A01 T03240135  RH  032%=      5-min Rain = 0
KCA2 241719Z 32003KT 32/14 A2981 RMK A01 T03220135  RH  032%=      5-min Rain = 0
KCA2 241720Z 00007KT 32/14 A2981 RMK A01 T03220135  RH  032%=      5-min Rain = 0
KCA2 241721Z 33008KT 32/14 A298 RMK A01 T03210135  RH  032%=      5-min Rain = 0
KCA2 241722Z 34007KT 32/14 A298 RMK A01 T03210136  RH  032%=      5-min Rain = 0
KCA2 241723Z 35005KT 32/14 A298 RMK A01 T03210136  RH  033%=      5-min Rain = 0
KCA2 241724Z 00007KT 32/14 A298 RMK A01 T03210137  RH  033%=      5-min Rain = 0
KCA2 241725Z 01007KT 32/14 A298 RMK A01 T03210137  RH  033%=      5-min Rain = 0
KCA2 241726Z 35004KT 32/14 A298 RMK A01 T03210138  RH  033%=      5-min Rain = 0
KCA2 241727Z 00005KT 32/14 A298 RMK A01 T03220139  RH  033%=      5-min Rain = 0
KCA2 241728Z 01008KT 33/14 A298 RMK A01 T03270141  RH  032%=      5-min Rain = 0
KCA2 241729Z 35009KT 33/14 A298 RMK A01 T03330140  RH  031%=      5-min Rain = 0
KCA2 241730Z 01008KT 33/14 A298 RMK A01 T03330139  RH  031%=      5-min Rain = 0
KCA2 241731Z 34008KT 34/14 A298 RMK A01 T03360138  RH  030%=      5-min Rain = 0
KCA2 241732Z 35008KT 33/14 A298 RMK A01 T03330138  RH  031%=      5-min Rain = 0
KCA2 241733Z 35009KT 33/14 A298 RMK A01 T03330139  RH  031%=      5-min Rain = 0
KCA2 241734Z 36008KT 33/14 A298 RMK A01 T03300139  RH  031%=      5-min Rain = 0
KCA2 241735Z 34005KT 33/14 A298 RMK A01 T03280139  RH  032%=      5-min Rain = 0
KCA2 241736Z 32004KT 33/14 A298 RMK A01 T03280139  RH  032%=      5-min Rain = 0
KCA2 241737Z 35005KT 33/14 A298 RMK A01 T03270138  RH  032%=      5-min Rain = 0
KCA2 241738Z 34006KT 33/14 A298 RMK A01 T03270138  RH  032%=      5-min Rain = 0
KCA2 241739Z 30007KT 33/14 A2979 RMK A01 T03310142  RH  032%=      5-min Rain = 0
KCA2 241740Z 30004KT 34/14 A2979 RMK A01 T03350140  RH  031%=      5-min Rain = 0
KCA2 241741Z 33007G16KT 33/14 A2979 RMK A01 T03330137  RH  031%=      5-min Rain = 0
KCA2 241742Z 33013KT 33/13 A2979 RMK A01 T03310131  RH  030%=      5-min Rain = 0
KCA2 241743Z 31009KT 33/13 A2979 RMK A01 T03310128  RH  029%=      5-min Rain = 0
KCA2 241744Z 31011KT 33/13 A2979 RMK A01 T03310130  RH  030%=      5-min Rain = 0
KCA2 241745Z 32010G15KT 33/13 A2979 RMK A01 T03320131  RH  030%=      5-min Rain = 0
KCA2 241746Z 34006KT 33/13 A2979 RMK A01 T03290133  RH  030%=      5-min Rain = 0
KCA2 241747Z 31006KT 33/13 A2979 RMK A01 T03290129  RH  030%=      5-min Rain = 0
KCA2 241748Z 29007KT 33/13 A2979 RMK A01 T03290131  RH  030%=      5-min Rain = 0
KCA2 241749Z 31007KT 33/13 A2979 RMK A01 T03310134  RH  030%=      5-min Rain = 0
KCA2 241750Z 33008KT 33/13 A2979 RMK A01 T03320133  RH  030%=      5-min Rain = 0
KCA2 241751Z 32007G13KT 33/13 A2979 RMK A01 T03310132  RH  030%=      5-min Rain = 0
KCA2 241752Z 31012KT 33/13 A2979 RMK A01 T03310132  RH  030%=      5-min Rain = 0
KCA2 241753Z 32007KT 33/13 A2979 RMK A01 T03320132  RH  030%=      5-min Rain = 0
KCA2 241754Z 33005KT 33/13 A2979 RMK A01 T03310128  RH  029%=      5-min Rain = 0
KCA2 241755Z 30005KT 33/13 A2979 RMK A01 T03290128  RH  030%=      5-min Rain = 0
KCA2 241756Z 33007KT 33/13 A2979 RMK A01 T03290129  RH  030%=      5-min Rain = 0
KCA2 241757Z 33008KT 33/13 A2979 RMK A01 T03320130  RH  030%=      5-min Rain = 0
KCA2 241758Z 31007KT 33/13 A2979 RMK A01 T03330129  RH  029%=      5-min Rain = 0
KCA2 241759Z 31008KT 33/13 A2979 RMK A01 T03320131  RH  030%=      5-min Rain = 0
KCA2 241800Z 31010KT 34/14 A2978 RMK A01 T03370135  RH  030%=      5-min Rain = 0
KCA2 241801Z 29009KT 34/14 A2978 RMK A01 T03390136  RH  029%=      5-min Rain = 0
KCA2 241802Z 28008KT 34/13 A2978 RMK A01 T03400131  RH  028%=      5-min Rain = 0
KCA2 241803Z 31008KT 34/13 A2978 RMK A01 T03370128  RH  028%=      5-min Rain = 0
KCA2 241804Z 31008KT 34/13 A2978 RMK A01 T03350129  RH  029%=      5-min Rain = 0
KCA2 241805Z 34005KT 34/13 A2978 RMK A01 T03360131  RH  029%=      5-min Rain = 0
KCA2 241806Z 01005KT 34/13 A2978 RMK A01 T03380128  RH  028%=      5-min Rain = 0
KCA2 241807Z 02005KT 34/13 A2978 RMK A01 T03380130  RH  028%=      5-min Rain = 0
KCA2 241808Z 00008KT 34/13 A2978 RMK A01 T03400131  RH  028%=      5-min Rain = 0
KCA2 241809Z 01005G10KT 34/13 A2978 RMK A01 T03390129  RH  028%=      5-min Rain = 0
KCA2 241810Z 04007KT 33/13 A2978 RMK A01 T03330127  RH  029%=      5-min Rain = 0
KCA2 241811Z 03008KT 33/13 A2978 RMK A01 T03300127  RH  029%=      5-min Rain = 0
KCA2 241812Z 02003KT 33/13 A2978 RMK A01 T03330129  RH  029%=      5-min Rain = 0
KCA2 241813Z 04006KT 34/13 A2978 RMK A01 T03370129  RH  028%=      5-min Rain = 0
KCA2 241814Z 03003KT 34/13 A2978 RMK A01 T03370128  RH  028%=      5-min Rain = 0
KCA2 241815Z 00006G11KT 34/13 A2977 RMK A01 T03370127  RH  028%=      5-min Rain = 0
KCA2 241816Z 01008G13KT 34/12 A2978 RMK A01 T03390122  RH  027%=      5-min Rain = 0
KCA2 241817Z 00005KT 34/12 A2977 RMK A01 T03370117  RH  026%=      5-min Rain = 0
KCA2 241818Z 35007KT 34/12 A2977 RMK A01 T03370124  RH  027%=      5-min Rain = 0
KCA2 241819Z 35005KT 34/12 A2977 RMK A01 T03380124  RH  027%=      5-min Rain = 0
KCA2 241820Z 35010KT 34/12 A2977 RMK A01 T03370122  RH  027%=      5-min Rain = 0
KCA2 241821Z 35010KT 34/12 A2977 RMK A01 T03420122  RH  026%=      5-min Rain = 0
KCA2 241822Z 34010KT 34/12 A2977 RMK A01 T03440119  RH  026%=      5-min Rain = 0
KCA2 241823Z 33011KT 34/12 A2977 RMK A01 T03400119  RH  026%=      5-min Rain = 0
KCA2 241824Z 33008KT 34/12 A2977 RMK A01 T03380119  RH  026%=      5-min Rain = 0
KCA2 241825Z 33006KT 34/12 A2977 RMK A01 T03370118  RH  026%=      5-min Rain = 0
KCA2 241826Z 26002KT 34/12 A2977 RMK A01 T03350116  RH  026%=      5-min Rain = 0
KCA2 241827Z 25001KT 34/12 A2977 RMK A01 T03350119  RH  027%=      5-min Rain = 0
KCA2 241828Z 09003KT 34/12 A2977 RMK A01 T03370118  RH  027%=      5-min Rain = 0
KCA2 241829Z 11002KT 34/12 A2977 RMK A01 T03360119  RH  027%=      5-min Rain = 0
KCA2 241830Z 33006G11KT 34/12 A2977 RMK A01 T03390123  RH  027%=      5-min Rain = 0
KCA2 241831Z 34008KT 34/12 A2977 RMK A01 T03440119  RH  025%=      5-min Rain = 0
KCA2 241832Z 36007KT 34/11 A2977 RMK A01 T03430114  RH  025%=      5-min Rain = 0
KCA2 241833Z 35006KT 34/11 A2977 RMK A01 T03420111  RH  025%=      5-min Rain = 0
KCA2 241834Z 31011KT 35/12 A2977 RMK A01 T03460116  RH  025%=      5-min Rain = 0
KCA2 241835Z 32010KT 35/11 A2977 RMK A01 T03480114  RH  024%=      5-min Rain = 0
KCA2 241836Z 31007KT 35/11 A2977 RMK A01 T03450111  RH  024%=      5-min Rain = 0
KCA2 241837Z 29007KT 34/11 A2977 RMK A01 T03430113  RH  025%=      5-min Rain = 0
KCA2 241838Z 31010KT 34/11 A2977 RMK A01 T03440113  RH  025%=      5-min Rain = 0
KCA2 241839Z 32007KT 35/11 A2977 RMK A01 T03450113  RH  025%=      5-min Rain = 0
KCA2 241840Z 32008KT 35/11 A2977 RMK A01 T03450113  RH  024%=      5-min Rain = 0
KCA2 241841Z 30006KT 34/11 A2977 RMK A01 T03440111  RH  024%=      5-min Rain = 0
KCA2 241842Z 33004KT 34/11 A2977 RMK A01 T03420109  RH  024%=      5-min Rain = 0
KCA2 241843Z 33005KT 35/11 A2976 RMK A01 T03450111  RH  024%=      5-min Rain = 0
KCA2 241844Z 00003KT 34/11 A2976 RMK A01 T03440112  RH  024%=      5-min Rain = 0
KCA2 241845Z 01004KT 35/11 A2976 RMK A01 T03450113  RH  024%=      5-min Rain = 0
KCA2 241846Z 34006KT 35/11 A2976 RMK A01 T03470113  RH  024%=      5-min Rain = 0
KCA2 241847Z 34005KT 35/11 A2976 RMK A01 T03470107  RH  023%=      5-min Rain = 0
KCA2 241848Z 32005KT 34/10 A2976 RMK A01 T03440103  RH  023%=      5-min Rain = 0
KCA2 241849Z 29004KT 35/10 A2976 RMK A01 T03450100  RH  022%=      5-min Rain = 0
KCA2 241850Z 28003KT 35/10 A2976 RMK A01 T03460099  RH  022%=      5-min Rain = 0
KCA2 241851Z 27002KT 34/10 A2976 RMK A01 T03440099  RH  022%=      5-min Rain = 0
KCA2 241852Z 29003KT 34/11 A2976 RMK A01 T03430106  RH  024%=      5-min Rain = 0
KCA2 241853Z 29001KT 34/11 A2976 RMK A01 T03440108  RH  024%=      5-min Rain = 0
KCA2 241854Z 22005KT 35/11 A2975 RMK A01 T03460111  RH  024%=      5-min Rain = 0
KCA2 241855Z 19001KT 35/11 A2975 RMK A01 T03470110  RH  024%=      5-min Rain = 0
KCA2 241856Z 29004KT 35/11 A2975 RMK A01 T03450113  RH  024%=      5-min Rain = 0
KCA2 241857Z 29007KT 35/11 A2975 RMK A01 T03460110  RH  024%=      5-min Rain = 0
KCA2 241858Z 30006KT 35/11 A2975 RMK A01 T03470109  RH  024%=      5-min Rain = 0
KCA2 241859Z 30004KT 35/10 A2975 RMK A01 T03460104  RH  023%=      5-min Rain = 0
KCA2 241900Z 28003KT 35/10 A2975 RMK A01 T03450104  RH  023%=      5-min Rain = 0
KCA2 241901Z 28007KT 35/11 A2975 RMK A01 T03450112  RH  024%=      5-min Rain = 0
KCA2 241902Z 26008KT 35/11 A2975 RMK A01 T03470111  RH  024%=      5-min Rain = 0
KCA2 241903Z 25007KT 35/11 A2975 RMK A01 T03460109  RH  024%=      5-min Rain = 0
KCA2 241904Z 26007KT 34/11 A2975 RMK A01 T03440109  RH  024%=      5-min Rain = 0
KCA2 241905Z 27006KT 35/11 A2975 RMK A01 T03460109  RH  024%=      5-min Rain = 0
KCA2 241906Z 24003KT 35/11 A2975 RMK A01 T03480108  RH  023%=      5-min Rain = 0
KCA2 241907Z 23003KT 35/11 A2974 RMK A01 T03480105  RH  023%=      5-min Rain = 0
KCA2 241908Z 25007KT 35/11 A2974 RMK A01 T03470107  RH  023%=      5-min Rain = 0
KCA2 241909Z 24009KT 35/11 A2974 RMK A01 T03460110  RH  024%=      5-min Rain = 0
KCA2 241910Z 23007KT 35/11 A2974 RMK A01 T03500111  RH  023%=      5-min Rain = 0
KCA2 241911Z 22005KT 35/11 A2974 RMK A01 T03500106  RH  023%=      5-min Rain = 0
KCA2 241912Z 20002KT 35/11 A2974 RMK A01 T03470107  RH  023%=      5-min Rain = 0
KCA2 241913Z 20005KT 35/11 A2974 RMK A01 T03480107  RH  023%=      5-min Rain = 0
KCA2 241914Z 20005KT 35/11 A2974 RMK A01 T03510106  RH  023%=      5-min Rain = 0
KCA2 241915Z 20006KT 35/11 A2974 RMK A01 T03510106  RH  023%=      5-min Rain = 0
KCA2 241916Z 22006KT 35/11 A2974 RMK A01 T03510105  RH  023%=      5-min Rain = 0
KCA2 241917Z 21006KT 35/11 A2974 RMK A01 T03490106  RH  023%=      5-min Rain = 0
KCA2 241918Z 23007KT 35/11 A2974 RMK A01 T03510105  RH  022%=      5-min Rain = 0
KCA2 241919Z 22007KT 35/10 A2974 RMK A01 T03530104  RH  022%=      5-min Rain = 0
KCA2 241920Z 23008KT 35/11 A2973 RMK A01 T03530107  RH  022%=      5-min Rain = 0
KCA2 241921Z 22010KT 36/10 A2973 RMK A01 T03580104  RH  021%=      5-min Rain = 0
KCA2 241922Z 22009KT 36/10 A2973 RMK A01 T03600103  RH  021%=      5-min Rain = 0
KCA2 241923Z 22008KT 36/10 A2973 RMK A01 T03620103  RH  021%=      5-min Rain = 0
KCA2 241924Z 23006KT 36/10 A2973 RMK A01 T03600100  RH  021%=      5-min Rain = 0
KCA2 241925Z 26005KT 36/10 A2973 RMK A01 T03550100  RH  021%=      5-min Rain = 0
KCA2 241926Z 33004KT 36/10 A2973 RMK A01 T03560104  RH  022%=      5-min Rain = 0
KCA2 241927Z 33007KT 36/10 A2973 RMK A01 T03620102  RH  021%=      5-min Rain = 0
KCA2 241928Z 34007KT 36/10 A2973 RMK A01 T03610098  RH  020%=      5-min Rain = 0
KCA2 241929Z 33008KT 36/10 A2973 RMK A01 T03570099  RH  021%=      5-min Rain = 0
KCA2 241930Z 34008KT 36/10 A2973 RMK A01 T03570100  RH  021%=      5-min Rain = 0
KCA2 241931Z 03007KT 36/10 A2973 RMK A01 T03590098  RH  020%=      5-min Rain = 0
KCA2 241932Z 04007KT 36/09 A2973 RMK A01 T03570094  RH  020%=      5-min Rain = 0
KCA2 241933Z 03007KT 36/09 A2973 RMK A01 T03550094  RH  020%=      5-min Rain = 0
KCA2 241934Z 05005KT 35/10 A2973 RMK A01 T03530095  RH  021%=      5-min Rain = 0
KCA2 241935Z 36003KT 35/10 A2973 RMK A01 T03480095  RH  021%=      5-min Rain = 0
KCA2 241936Z 34006KT 35/10 A2973 RMK A01 T03470095  RH  021%=      5-min Rain = 0
KCA2 241937Z 32006KT 35/10 A2973 RMK A01 T03500096  RH  021%=      5-min Rain = 0
KCA2 241938Z 36001KT 36/10 A2973 RMK A01 T03560097  RH  021%=      5-min Rain = 0
KCA2 241939Z 33008KT 36/10 A2973 RMK A01 T03570096  RH  020%=      5-min Rain = 0
KCA2 241940Z 35007KT 36/10 A2973 RMK A01 T03580097  RH  020%=      5-min Rain = 0
KCA2 241941Z 35005KT 36/10 A2973 RMK A01 T03580095  RH  020%=      5-min Rain = 0
KCA2 241942Z 32008G13KT 36/10 A2972 RMK A01 T03560096  RH  021%=      5-min Rain = 0
KCA2 241943Z 31007KT 36/11 A2972 RMK A01 T03600105  RH  021%=      5-min Rain = 0
KCA2 241944Z 32007KT 37/10 A2972 RMK A01 T03650102  RH  020%=      5-min Rain = 0
KCA2 241945Z 30002KT 36/10 A2972 RMK A01 T03590097  RH  020%=      5-min Rain = 0
KCA2 241946Z 35002KT 36/10 A2972 RMK A01 T03550096  RH  021%=      5-min Rain = 0
KCA2 241947Z 34003KT 35/09 A2972 RMK A01 T03540094  RH  020%=      5-min Rain = 0
KCA2 241948Z 01004KT 36/09 A2972 RMK A01 T03560093  RH  020%=      5-min Rain = 0
KCA2 241949Z 00005KT 36/09 A2972 RMK A01 T03580093  RH  020%=      5-min Rain = 0
KCA2 241950Z 28006KT 36/10 A2972 RMK A01 T03590096  RH  020%=      5-min Rain = 0
KCA2 241951Z 28012KT 36/10 A2972 RMK A01 T03620099  RH  020%=      5-min Rain = 0
KCA2 241952Z 26008KT 36/10 A2972 RMK A01 T03590098  RH  020%=      5-min Rain = 0
KCA2 241953Z 23005KT 35/09 A2972 RMK A01 T03530092  RH  020%=      5-min Rain = 0
KCA2 241954Z 25005KT 35/09 A2972 RMK A01 T03500094  RH  021%=      5-min Rain = 0
KCA2 241955Z 21006KT 35/10 A2972 RMK A01 T03490095  RH  021%=      5-min Rain = 0
KCA2 241956Z 18009KT 35/09 A2971 RMK A01 T03510093  RH  021%=      5-min Rain = 0
KCA2 241957Z 16008KT 35/09 A2971 RMK A01 T03510094  RH  021%=      5-min Rain = 0
KCA2 241958Z 24004KT 35/10 A2971 RMK A01 T03540097  RH  021%=      5-min Rain = 0
KCA2 241959Z 30005KT 36/10 A2971 RMK A01 T03580098  RH  021%=      5-min Rain = 0
KCA2 242000Z 32004KT 36/10 A2971 RMK A01 T03580098  RH  021%=      5-min Rain = 0
KCA2 242001Z 31004KT 36/10 A2971 RMK A01 T03610098  RH  020%=      5-min Rain = 0
KCA2 242002Z 36003KT 36/10 A2971 RMK A01 T03590095  RH  020%=      5-min Rain = 0
KCA2 242003Z 00006KT 36/09 A2971 RMK A01 T03600093  RH  020%=      5-min Rain = 0
KCA2 242004Z 01004KT 36/09 A2971 RMK A01 T03610091  RH  019%=      5-min Rain = 0
KCA2 242005Z 36002KT 36/09 A2971 RMK A01 T03580087  RH  019%=      5-min Rain = 0
KCA2 242006Z 32005KT 36/09 A2971 RMK A01 T03550090  RH  020%=      5-min Rain = 0
KCA2 242007Z 30005KT 36/09 A2971 RMK A01 T03590087  RH  019%=      5-min Rain = 0
KCA2 242008Z 35003KT 36/09 A2971 RMK A01 T03570086  RH  019%=      5-min Rain = 0
KCA2 242009Z 29007KT 36/09 A2971 RMK A01 T03600090  RH  019%=      5-min Rain = 0
KCA2 242010Z 30011KT 36/09 A2971 RMK A01 T03640088  RH  019%=      5-min Rain = 0
KCA2 242011Z 31011KT 37/09 A2971 RMK A01 T03660086  RH  018%=      5-min Rain = 0
KCA2 242012Z 31007KT 36/08 A2971 RMK A01 T03640084  RH  018%=      5-min Rain = 0
KCA2 242013Z 33008KT 36/08 A2971 RMK A01 T03590082  RH  018%=      5-min Rain = 0
KCA2 242014Z 34005KT 36/08 A2971 RMK A01 T03560084  RH  019%=      5-min Rain = 0
KCA2 242015Z 02004KT 36/08 A2971 RMK A01 T03570084  RH  019%=      5-min Rain = 0
KCA2 242016Z 05003KT 36/09 A2971 RMK A01 T03590085  RH  019%=      5-min Rain = 0
KCA2 242017Z 09003KT 36/08 A2971 RMK A01 T03600084  RH  019%=      5-min Rain = 0
KCA2 242018Z 14003KT 36/09 A2971 RMK A01 T03590085  RH  019%=      5-min Rain = 0
KCA2 242019Z 17003KT 36/09 A2971 RMK A01 T03610086  RH  019%=      5-min Rain = 0
KCA2 242020Z 26006KT 36/09 A2971 RMK A01 T03610087  RH  019%=      5-min Rain = 0
KCA2 242021Z 25007KT 36/09 A297 RMK A01 T03640089  RH  019%=      5-min Rain = 0
KCA2 242022Z 23006KT 37/09 A297 RMK A01 T03680085  RH  018%=      5-min Rain = 0
KCA2 242023Z 26006KT 37/08 A297 RMK A01 T03660082  RH  018%=      5-min Rain = 0
KCA2 242024Z 27005KT 36/08 A297 RMK A01 T03620078  RH  018%=      5-min Rain = 0
KCA2 242025Z 17004KT 36/07 A297 RMK A01 T03590073  RH  017%=      5-min Rain = 0
KCA2 242026Z 28004G9KT 36/08 A297 RMK A01 T03580079  RH  018%=      5-min Rain = 0
KCA2 242027Z 29005KT 36/08 A297 RMK A01 T03590080  RH  018%=      5-min Rain = 0
KCA2 242028Z 31004KT 36/08 A297 RMK A01 T03580078  RH  018%=      5-min Rain = 0
KCA2 242029Z 32003KT 36/08 A297 RMK A01 T03560076  RH  018%=      5-min Rain = 0
KCA2 242030Z 33004G9KT 36/08 A297 RMK A01 T03560077  RH  018%=      5-min Rain = 0
KCA2 242031Z 32008KT 36/08 A297 RMK A01 T03600077  RH  018%=      5-min Rain = 0
KCA2 242032Z 32005KT 36/08 A297 RMK A01 T03600076  RH  018%=      5-min Rain = 0
KCA2 242033Z 31004KT 36/08 A2969 RMK A01 T03620075  RH  017%=      5-min Rain = 0
KCA2 242034Z 00004KT 36/08 A2969 RMK A01 T03640076  RH  017%=      5-min Rain = 0
KCA2 242035Z 00004KT 36/07 A2969 RMK A01 T03640074  RH  017%=      5-min Rain = 0
KCA2 242036Z 33003KT 37/07 A2969 RMK A01 T03650068  RH  016%=      5-min Rain = 0
KCA2 242037Z 33003KT 36/06 A2969 RMK A01 T03640061  RH  016%=      5-min Rain = 0
KCA2 242038Z 33002KT 36/07 A2969 RMK A01 T03610069  RH  017%=      5-min Rain = 0
KCA2 242039Z 32002KT 36/07 A2969 RMK A01 T03600072  RH  017%=      5-min Rain = 0
KCA2 242040Z 32003KT 36/07 A2969 RMK A01 T03610072  RH  017%=      5-min Rain = 0
KCA2 242041Z 30003KT 37/07 A2969 RMK A01 T03650070  RH  016%=      5-min Rain = 0
KCA2 242042Z 29001KT 37/07 A2969 RMK A01 T03660073  RH  017%=      5-min Rain = 0
KCA2 242043Z 29003G8KT 37/07 A2969 RMK A01 T03700074  RH  016%=      5-min Rain = 0
KCA2 242044Z 27007KT 37/06 A2969 RMK A01 T03720063  RH  015%=      5-min Rain = 0
KCA2 242045Z 27007KT 37/06 A2968 RMK A01 T03720059  RH  015%=      5-min Rain = 0
KCA2 242046Z 27007G14KT 37/05 A2968 RMK A01 T03710054  RH  014%=      5-min Rain = 0
KCA2 242047Z 27011KT 37/05 A2968 RMK A01 T03720046  RH  013%=      5-min Rain = 0
KCA2 242048Z 26010KT 37/04 A2968 RMK A01 T03730043  RH  013%=      5-min Rain = 0
KCA2 242049Z 23014KT 37/04 A2968 RMK A01 T03720039  RH  013%=      5-min Rain = 0
KCA2 242050Z 23010G15KT 38/03 A2968 RMK A01 T03750033  RH  012%=      5-min Rain = 0
KCA2 242051Z 22010KT 37/03 A2968 RMK A01 T03740032  RH  012%=      5-min Rain = 0
KCA2 242052Z 21010KT 37/03 A2968 RMK A01 T03740031  RH  012%=      5-min Rain = 0
KCA2 242053Z 23007KT 37/03 A2968 RMK A01 T03720025  RH  012%=      5-min Rain = 0
KCA2 242054Z 23005KT 37/03 A2968 RMK A01 T03660026  RH  012%=      5-min Rain = 0
KCA2 242055Z 23004KT 37/03 A2968 RMK A01 T03650027  RH  012%=      5-min Rain = 0
KCA2 242056Z 28002KT 36/03 A2968 RMK A01 T03640027  RH  012%=      5-min Rain = 0
KCA2 242057Z 28004G10KT 37/03 A2968 RMK A01 T03660030  RH  012%=      5-min Rain = 0
KCA2 242058Z 29007KT 37/04 A2968 RMK A01 T03690038  RH  013%=      5-min Rain = 0
KCA2 242059Z 29008KT 37/04 A2968 RMK A01 T03710037  RH  013%=      5-min Rain = 0
KCA2 242100Z 27008KT 37/03 A2968 RMK A01 T03700032  RH  012%=      5-min Rain = 0
KCA2 242101Z 28007KT 37/03 A2967 RMK A01 T03680027  RH  012%=      5-min Rain = 0
KCA2 242102Z 28007KT 37/02 A2967 RMK A01 T03670015  RH  011%=      5-min Rain = 0
KCA2 242103Z 28007G12KT 37/03 A2967 RMK A01 T03690028  RH  012%=      5-min Rain = 0
KCA2 242104Z 30007KT 37/03 A2967 RMK A01 T03720031  RH  012%=      5-min Rain = 0
KCA2 242105Z 29008KT 38/03 A2967 RMK A01 T03770027  RH  011%=      5-min Rain = 0
KCA2 242106Z 32009G15KT 38/03 A2967 RMK A01 T03770026  RH  011%=      5-min Rain = 0
KCA2 242107Z 31012KT 38/03 A2967 RMK A01 T03760027  RH  011%=      5-min Rain = 0
KCA2 242108Z 31010KT 38/03 A2967 RMK A01 T03790031  RH  012%=      5-min Rain = 0
KCA2 242109Z 31012KT 38/03 A2967 RMK A01 T03830033  RH  012%=      5-min Rain = 0
KCA2 242110Z 29011KT 38/03 A2966 RMK A01 T03810031  RH  011%=      5-min Rain = 0
KCA2 242111Z 29011KT 38/04 A2966 RMK A01 T03810038  RH  012%=      5-min Rain = 0
KCA2 242112Z 28009KT 38/04 A2966 RMK A01 T03790038  RH  012%=      5-min Rain = 0
KCA2 242113Z 26008KT 38/04 A2966 RMK A01 T03770041  RH  013%=      5-min Rain = 0
KCA2 242114Z 27013KT 38/04 A2966 RMK A01 T03790038  RH  012%=      5-min Rain = 0
KCA2 242115Z 26014KT 38/03 A2966 RMK A01 T03760032  RH  012%=      5-min Rain = 0
KCA2 242116Z 24014KT 37/03 A2966 RMK A01 T03730027  RH  012%=      5-min Rain = 0
KCA2 242117Z 24017KT 37/03 A2965 RMK A01 T03720028  RH  012%=      5-min Rain = 0
KCA2 242118Z 24011KT 37/03 A2966 RMK A01 T03700031  RH  012%=      5-min Rain = 0
KCA2 242119Z 23008KT 37/03 A2966 RMK A01 T03700027  RH  012%=      5-min Rain = 0
KCA2 242120Z 24005KT 37/02 A2966 RMK A01 T03660024  RH  012%=      5-min Rain = 0
KCA2 242121Z 33006KT 36/03 A2966 RMK A01 T03640027  RH  012%=      5-min Rain = 0
KCA2 242122Z 35005KT 36/03 A2965 RMK A01 T03640026  RH  012%=      5-min Rain = 0
KCA2 242123Z 34005KT 36/03 A2965 RMK A01 T03630025  RH  012%=      5-min Rain = 0
KCA2 242124Z 29004KT 36/02 A2965 RMK A01 T03630021  RH  012%=      5-min Rain = 0
KCA2 242125Z 29003KT 37/02 A2965 RMK A01 T03660022  RH  012%=      5-min Rain = 0
KCA2 242126Z 29002KT 37/02 A2965 RMK A01 T03660018  RH  011%=      5-min Rain = 0
KCA2 242127Z 29002KT 37/02 A2965 RMK A01 T03650017  RH  011%=      5-min Rain = 0
KCA2 242128Z 30003KT 37/02 A2965 RMK A01 T03650018  RH  011%=      5-min Rain = 0
KCA2 242129Z 27005KT 37/02 A2965 RMK A01 T03670023  RH  012%=      5-min Rain = 0
KCA2 242130Z 31006KT 37/02 A2965 RMK A01 T03690024  RH  012%=      5-min Rain = 0
KCA2 242131Z 30012KT 37/03 A2964 RMK A01 T03710025  RH  012%=      5-min Rain = 0
KCA2 242132Z 28010KT 37/03 A2964 RMK A01 T03740028  RH  012%=      5-min Rain = 0
KCA2 242133Z 29010KT 37/02 A2964 RMK A01 T03740024  RH  011%=      5-min Rain = 0
KCA2 242134Z 32010KT 38/03 A2964 RMK A01 T03770027  RH  011%=      5-min Rain = 0
KCA2 242135Z 30009KT 38/02 A2964 RMK A01 T03790022  RH  011%=      5-min Rain = 0
KCA2 242136Z 29009KT 38/02 A2964 RMK A01 T03760019  RH  011%=      5-min Rain = 0
KCA2 242137Z 31006KT 37/02 A2964 RMK A01 T03690016  RH  011%=      5-min Rain = 0
KCA2 242138Z 32006KT 37/02 A2964 RMK A01 T03670015  RH  011%=      5-min Rain = 0
KCA2 242139Z 35004KT 36/01 A2964 RMK A01 T03640014  RH  011%=      5-min Rain = 0
KCA2 242140Z 31003KT 37/02 A2964 RMK A01 T03650015  RH  011%=      5-min Rain = 0
KCA2 242141Z 28005KT 37/02 A2964 RMK A01 T03690023  RH  012%=      5-min Rain = 0
KCA2 242142Z 27008KT 37/02 A2964 RMK A01 T03720022  RH  011%=      5-min Rain = 0
KCA2 242143Z 29006KT 37/02 A2964 RMK A01 T03720022  RH  011%=      5-min Rain = 0
KCA2 242144Z 30006KT 37/02 A2964 RMK A01 T03720019  RH  011%=      5-min Rain = 0
KCA2 242145Z 30006KT 37/02 A2963 RMK A01 T03720018  RH  011%=      5-min Rain = 0
KCA2 242146Z 30005KT 37/02 A2963 RMK A01 T03690015  RH  011%=      5-min Rain = 0
KCA2 242147Z 26004G9KT 37/02 A2963 RMK A01 T03690022  RH  011%=      5-min Rain = 0
KCA2 242148Z 26010KT 37/02 A2963 RMK A01 T03730023  RH  011%=      5-min Rain = 0
KCA2 242149Z 28009KT 37/02 A2963 RMK A01 T03710024  RH  011%=      5-min Rain = 0
KCA2 242150Z 26007KT 37/02 A2963 RMK A01 T03740023  RH  011%=      5-min Rain = 0
KCA2 242151Z 29005KT 37/02 A2963 RMK A01 T03740022  RH  011%=      5-min Rain = 0
KCA2 242152Z 32005KT 37/02 A2963 RMK A01 T03740021  RH  011%=      5-min Rain = 0
KCA2 242153Z 30006KT 37/01 A2963 RMK A01 T03730012  RH  010%=      5-min Rain = 0
KCA2 242154Z 25004KT 38/02 A2962 RMK A01 T03750020  RH  011%=      5-min Rain = 0
KCA2 242155Z 29003G8KT 38/02 A2962 RMK A01 T03770018  RH  011%=      5-min Rain = 0
KCA2 242156Z 31009KT 38/02 A2962 RMK A01 T03800016  RH  010%=      5-min Rain = 0
KCA2 242157Z 30008KT 38/01 A2962 RMK A01 T03780013  RH  010%=      5-min Rain = 0
KCA2 242158Z 28007KT 38/02 A2962 RMK A01 T03770015  RH  010%=      5-min Rain = 0
KCA2 242159Z 28009KT 38/02 A2962 RMK A01 T03770016  RH  010%=      5-min Rain = 0
KCA2 242200Z 29013KT 38/02 A2962 RMK A01 T03790017  RH  010%=      5-min Rain = 0
KCA2 242201Z 30013KT 38/02 A2962 RMK A01 T03830020  RH  010%=      5-min Rain = 0
KCA2 242202Z 30015KT 39/02 A2962 RMK A01 T03880021  RH  010%=      5-min Rain = 0
KCA2 242203Z 30013KT 39/01 A2962 RMK A01 T03850012  RH  010%=      5-min Rain = 0
KCA2 242204Z 29013KT 38/01 A2962 RMK A01 T03800012  RH  010%=      5-min Rain = 0
KCA2 242205Z 31010G16KT 38/01 A2962 RMK A01 T03760010  RH  010%=      5-min Rain = 0
KCA2 242206Z 30011G16KT 38/01 A2962 RMK A01 T03760011  RH  010%=      5-min Rain = 0
KCA2 242207Z 28011G16KT 38/01 A2962 RMK A01 T03790014  RH  010%=      5-min Rain = 0
KCA2 242208Z 29011KT 38/02 A2962 RMK A01 T03800015  RH  010%=      5-min Rain = 0
KCA2 242209Z 30014KT 38/01 A2961 RMK A01 T03810011  RH  010%=      5-min Rain = 0
KCA2 242210Z 30012KT 38/01 A2962 RMK A01 T03820005  RH  009%=      5-min Rain = 0
KCA2 242211Z 30013KT 38/M00 A2961 RMK A01 T03791001  RH  009%=      5-min Rain = 0
KCA2 242212Z 27012KT 38/01 A2962 RMK A01 T03770005  RH  010%=      5-min Rain = 0
KCA2 242213Z 23008KT 38/M00 A2962 RMK A01 T03771001  RH  009%=      5-min Rain = 0
KCA2 242214Z 25004KT 38/M01 A2961 RMK A01 T03751006  RH  009%=      5-min Rain = 0
KCA2 242215Z 29006KT 37/00 A2961 RMK A01 T03740001  RH  010%=      5-min Rain = 0
KCA2 242216Z 30014KT 38/00 A2961 RMK A01 T03760002  RH  010%=      5-min Rain = 0
KCA2 242217Z 29018KT 38/M01 A2961 RMK A01 T03781006  RH  009%=      5-min Rain = 0
KCA2 242218Z 28016G21KT 38/M01 A2961 RMK A01 T03801010  RH  009%=      5-min Rain = 0
KCA2 242219Z 29008KT 38/M02 A2961 RMK A01 T03771017  RH  008%=      5-min Rain = 0
KCA2 242220Z 27010KT 38/M01 A2961 RMK A01 T03761011  RH  009%=      5-min Rain = 0
KCA2 242221Z 29013KT 38/M01 A2961 RMK A01 T03761014  RH  008%=      5-min Rain = 0
KCA2 242222Z 28010KT 38/M02 A2961 RMK A01 T03781015  RH  008%=      5-min Rain = 0
KCA2 242223Z 28007KT 38/M02 A2961 RMK A01 T03781015  RH  008%=      5-min Rain = 0
KCA2 242224Z 28007KT 38/M02 A2961 RMK A01 T03791017  RH  008%=      5-min Rain = 0
KCA2 242225Z 28005KT 38/M02 A2961 RMK A01 T03771017  RH  008%=      5-min Rain = 0
KCA2 242226Z 27007KT 38/M01 A296 RMK A01 T03801012  RH  009%=      5-min Rain = 0
KCA2 242227Z 30007KT 38/M02 A296 RMK A01 T03821015  RH  008%=      5-min Rain = 0
KCA2 242228Z 30007KT 38/M02 A296 RMK A01 T03811017  RH  008%=      5-min Rain = 0
KCA2 242229Z 28007KT 38/M01 A296 RMK A01 T03821008  RH  009%=      5-min Rain = 0
KCA2 242230Z 29013KT 38/M01 A296 RMK A01 T03831013  RH  008%=      5-min Rain = 0
KCA2 242231Z 28012G17KT 38/M01 A296 RMK A01 T03821012  RH  008%=      5-min Rain = 0
KCA2 242232Z 28010KT 38/M01 A296 RMK A01 T03831008  RH  009%=      5-min Rain = 0
KCA2 242233Z 26013KT 39/M02 A2959 RMK A01 T03851015  RH  008%=      5-min Rain = 0
KCA2 242234Z 24011KT 38/M02 A296 RMK A01 T03821023  RH  008%=      5-min Rain = 0
KCA2 242235Z 25009KT 38/M02 A2959 RMK A01 T03801022  RH  008%=      5-min Rain = 0
KCA2 242236Z 24009KT 38/M02 A2959 RMK A01 T03791019  RH  008%=      5-min Rain = 0
KCA2 242237Z 26009KT 38/M02 A2959 RMK A01 T03811017  RH  008%=      5-min Rain = 0
KCA2 242238Z 30009KT 38/M02 A2959 RMK A01 T03811018  RH  008%=      5-min Rain = 0
KCA2 242239Z 30010G15KT 38/M02 A2959 RMK A01 T03811020  RH  008%=      5-min Rain = 0
KCA2 242240Z 29012KT 38/M02 A2959 RMK A01 T03811017  RH  008%=      5-min Rain = 0
KCA2 242241Z 26012KT 38/M02 A2959 RMK A01 T03831018  RH  008%=      5-min Rain = 0
KCA2 242242Z 25011KT 38/M02 A2959 RMK A01 T03831018  RH  008%=      5-min Rain = 0
KCA2 242243Z 27009KT 38/M02 A2959 RMK A01 T03821021  RH  008%=      5-min Rain = 0
KCA2 242244Z 27011KT 38/M02 A2959 RMK A01 T03801016  RH  008%=      5-min Rain = 0
KCA2 242245Z 27014KT 38/M02 A2959 RMK A01 T03811018  RH  008%=      5-min Rain = 0
KCA2 242246Z 28014KT 38/M02 A2959 RMK A01 T03811023  RH  008%=      5-min Rain = 0
KCA2 242247Z 28011KT 38/M03 A2959 RMK A01 T03811025  RH  008%=      5-min Rain = 0
KCA2 242248Z 28014G20KT 38/M03 A2959 RMK A01 T03821026  RH  008%=      5-min Rain = 0
KCA2 242249Z 29013G18KT 38/M04 A2959 RMK A01 T03811037  RH  007%=      5-min Rain = 0
KCA2 242250Z 31011KT 38/M04 A2959 RMK A01 T03791042  RH  007%=      5-min Rain = 0
KCA2 242251Z 30008KT 38/M04 A2959 RMK A01 T03811039  RH  007%=      5-min Rain = 0
KCA2 242252Z 29008KT 38/M04 A2959 RMK A01 T03811036  RH  007%=      5-min Rain = 0
KCA2 242253Z 28009KT 38/M03 A2959 RMK A01 T03791032  RH  007%=      5-min Rain = 0
KCA2 242254Z 29009KT 38/M03 A2959 RMK A01 T03771029  RH  008%=      5-min Rain = 0
KCA2 242255Z 27009KT 38/M02 A2959 RMK A01 T03791021  RH  008%=      5-min Rain = 0
KCA2 242256Z 26013G19KT 39/M03 A2959 RMK A01 T03851026  RH  007%=      5-min Rain = 0
KCA2 242257Z 25015G20KT 39/M05 A2959 RMK A01 T03861045  RH  006%=      5-min Rain = 0
KCA2 242258Z 25013KT 38/M05 A2959 RMK A01 T03831049  RH  006%=      5-min Rain = 0
KCA2 242259Z 28015G21KT 38/M04 A2959 RMK A01 T03811040  RH  007%=      5-min Rain = 0
KCA2 242300Z 27014G19KT 38/M04 A2959 RMK A01 T03821038  RH  007%=      5-min Rain = 0
KCA2 242301Z 27016KT 38/M04 A2959 RMK A01 T03841037  RH  007%=      5-min Rain = 0
KCA2 242302Z 27017KT 38/M05 A2959 RMK A01 T03841047  RH  006%=      5-min Rain = 0
KCA2 242303Z 26014KT 38/M05 A2959 RMK A01 T03801053  RH  006%=      5-min Rain = 0
KCA2 242304Z 25012KT 38/M05 A2959 RMK A01 T03791054  RH  006%=      5-min Rain = 0
KCA2 242305Z 25010KT 38/M05 A2959 RMK A01 T03781054  RH  006%=      5-min Rain = 0
KCA2 242306Z 24008KT 38/M05 A2959 RMK A01 T03791046  RH  007%=      5-min Rain = 0
KCA2 242307Z 26012KT 38/M04 A2959 RMK A01 T03811043  RH  007%=      5-min Rain = 0
KCA2 242308Z 29013KT 38/M05 A2959 RMK A01 T03821046  RH  006%=      5-min Rain = 0
KCA2 242309Z 28013KT 38/M05 A2959 RMK A01 T03811050  RH  006%=      5-min Rain = 0
KCA2 242310Z 28015KT 38/M05 A2959 RMK A01 T03801045  RH  007%=      5-min Rain = 0
KCA2 242311Z 26018KT 38/M04 A2959 RMK A01 T03801040  RH  007%=      5-min Rain = 0
KCA2 242312Z 24017G22KT 38/M04 A2959 RMK A01 T03791037  RH  007%=      5-min Rain = 0
KCA2 242313Z 24016KT 38/M04 A2959 RMK A01 T03791035  RH  007%=      5-min Rain = 0
KCA2 242314Z 24015KT 38/M04 A2959 RMK A01 T03791036  RH  007%=      5-min Rain = 0
KCA2 242315Z 24012KT 38/M04 A2959 RMK A01 T03791035  RH  007%=      5-min Rain = 0
KCA2 242316Z 26009KT 38/M04 A2959 RMK A01 T03781035  RH  007%=      5-min Rain = 0
KCA2 242317Z 25007KT 38/M03 A2959 RMK A01 T03781032  RH  007%=      5-min Rain = 0
KCA2 242318Z 24010KT 38/M03 A2959 RMK A01 T03781031  RH  007%=      5-min Rain = 0
KCA2 242319Z 25010G15KT 38/M03 A2959 RMK A01 T03791032  RH  007%=      5-min Rain = 0
KCA2 242320Z 29008KT 38/M04 A2959 RMK A01 T03801038  RH  007%=      5-min Rain = 0
KCA2 242321Z 28010KT 38/M04 A2959 RMK A01 T03761037  RH  007%=      5-min Rain = 0
KCA2 242322Z 28009KT 38/M04 A2959 RMK A01 T03771037  RH  007%=      5-min Rain = 0
KCA2 242323Z 28009KT 38/M03 A2959 RMK A01 T03781029  RH  008%=      5-min Rain = 0
KCA2 242324Z 26014G24KT 38/M03 A2959 RMK A01 T03801032  RH  007%=      5-min Rain = 0
KCA2 242325Z 24020KT 38/M04 A2958 RMK A01 T03801040  RH  007%=      5-min Rain = 0
KCA2 242326Z 23014KT 38/M04 A2959 RMK A01 T03781041  RH  007%=      5-min Rain = 0
KCA2 242327Z 23007KT 38/M04 A2959 RMK A01 T03771042  RH  007%=      5-min Rain = 0
KCA2 242328Z 22007KT 38/M04 A2959 RMK A01 T03761043  RH  007%=      5-min Rain = 0
KCA2 242329Z 25008KT 38/M04 A2959 RMK A01 T03771036  RH  007%=      5-min Rain = 0
KCA2 242330Z 27015G21KT 38/M03 A2958 RMK A01 T03791032  RH  007%=      5-min Rain = 0
KCA2 242331Z 28016KT 38/M04 A2958 RMK A01 T03791037  RH  007%=      5-min Rain = 0
KCA2 242332Z 28013G18KT 38/M04 A2959 RMK A01 T03781036  RH  007%=      5-min Rain = 0
KCA2 242333Z 28011KT 38/M03 A2959 RMK A01 T03781033  RH  007%=      5-min Rain = 0
KCA2 242334Z 28020G25KT 38/M03 A2958 RMK A01 T03801033  RH  007%=      5-min Rain = 0
KCA2 242335Z 26013G19KT 38/M04 A2959 RMK A01 T03781040  RH  007%=      5-min Rain = 0
KCA2 242336Z 25017KT 38/M04 A2959 RMK A01 T03761037  RH  007%=      5-min Rain = 0
KCA2 242337Z 26014G19KT 38/M04 A2959 RMK A01 T03761038  RH  007%=      5-min Rain = 0
KCA2 242338Z 26013KT 38/M04 A2959 RMK A01 T03761036  RH  007%=      5-min Rain = 0
KCA2 242339Z 28014KT 38/M03 A2959 RMK A01 T03771032  RH  007%=      5-min Rain = 0
KCA2 242340Z 28012KT 38/M03 A2959 RMK A01 T03771031  RH  007%=      5-min Rain = 0
KCA2 242341Z 27010KT 38/M03 A2959 RMK A01 T03771030  RH  008%=      5-min Rain = 0
KCA2 242342Z 27009KT 38/M04 A2959 RMK A01 T03771035  RH  007%=      5-min Rain = 0
KCA2 242343Z 28010KT 38/M03 A2959 RMK A01 T03761033  RH  007%=      5-min Rain = 0
KCA2 242344Z 28009KT 38/M03 A2959 RMK A01 T03771034  RH  007%=      5-min Rain = 0
KCA2 242345Z 27008KT 38/M04 A2959 RMK A01 T03771037  RH  007%=      5-min Rain = 0
KCA2 242346Z 25004KT 38/M04 A2959 RMK A01 T03761038  RH  007%=      5-min Rain = 0
KCA2 242347Z 27007KT 38/M03 A296 RMK A01 T03751033  RH  007%=      5-min Rain = 0
KCA2 242348Z 27008KT 38/M03 A296 RMK A01 T03761031  RH  008%=      5-min Rain = 0
KCA2 242349Z 28009KT 38/M03 A296 RMK A01 T03781031  RH  007%=      5-min Rain = 0
KCA2 242350Z 26011KT 38/M03 A296 RMK A01 T03771031  RH  007%=      5-min Rain = 0
KCA2 242351Z 27013G18KT 38/M03 A2959 RMK A01 T03771030  RH  008%=      5-min Rain = 0
KCA2 242352Z 27013KT 38/M03 A296 RMK A01 T03771032  RH  007%=      5-min Rain = 0
KCA2 242353Z 28012KT 38/M03 A296 RMK A01 T03761031  RH  008%=      5-min Rain = 0
KCA2 242354Z 28010KT 38/M03 A296 RMK A01 T03771031  RH  007%=      5-min Rain = 0
KCA2 242355Z 28009KT 38/M03 A296 RMK A01 T03771028  RH  008%=      5-min Rain = 0
KCA2 242356Z 28009KT 38/M03 A296 RMK A01 T03781032  RH  007%=      5-min Rain = 0
KCA2 242357Z 28007KT 38/M03 A296 RMK A01 T03771029  RH  008%=      5-min Rain = 0
KCA2 242358Z 28007KT 38/M03 A296 RMK A01 T03771030  RH  007%=      5-min Rain = 0
KCA2 242359Z 29007KT 38/M03 A296 RMK A01 T03771031  RH  007%=      5-min Rain = 0
KCA2 250000Z 29006KT 38/M03 A296 RMK A01 T03771027  RH  008%=      5-min Rain = 0
KCA2 250001Z 29006KT 38/M03 A296 RMK A01 T03781028  RH  008%=      5-min Rain = 0
KCA2 250002Z 29006KT 38/M03 A296 RMK A01 T03791025  RH  008%=      5-min Rain = 0
KCA2 250003Z 32005KT 38/M03 A296 RMK A01 T03801028  RH  008%=      5-min Rain = 0
KCA2 250004Z 32008KT 38/M02 A296 RMK A01 T03811024  RH  008%=      5-min Rain = 0
KCA2 250005Z 33011G18KT 38/M02 A296 RMK A01 T03791024  RH  008%=      5-min Rain = 0
KCA2 250006Z 32020G25KT 38/M03 A2959 RMK A01 T03781028  RH  008%=      5-min Rain = 0
KCA2 250007Z 31016KT 38/M03 A2959 RMK A01 T03771025  RH  008%=      5-min Rain = 0
KCA2 250008Z 32017KT 38/M02 A2959 RMK A01 T03771022  RH  008%=      5-min Rain = 0
KCA2 250009Z 31013KT 38/M02 A2959 RMK A01 T03761020  RH  008%=      5-min Rain = 0
KCA2 250010Z 30015KT 38/M02 A296 RMK A01 T03761019  RH  008%=      5-min Rain = 0
KCA2 250011Z 29013KT 38/M02 A296 RMK A01 T03781023  RH  008%=      5-min Rain = 0
KCA2 250012Z 30010KT 38/M02 A296 RMK A01 T03751023  RH  008%=      5-min Rain = 0
KCA2 250013Z 32010KT 38/M02 A296 RMK A01 T03751020  RH  008%=      5-min Rain = 0
KCA2 250014Z 30011KT 38/M02 A296 RMK A01 T03761019  RH  008%=      5-min Rain = 0
KCA2 250015Z 30014KT 38/M02 A296 RMK A01 T03761022  RH  008%=      5-min Rain = 0
KCA2 250016Z 32017KT 38/M02 A296 RMK A01 T03761022  RH  008%=      5-min Rain = 0
KCA2 250017Z 31016KT 38/M02 A296 RMK A01 T03761023  RH  008%=      5-min Rain = 0
KCA2 250018Z 32018KT 38/M02 A296 RMK A01 T03751023  RH  008%=      5-min Rain = 0
KCA2 250019Z 32018KT 37/M02 A296 RMK A01 T03741022  RH  008%=      5-min Rain = 0
KCA2 250020Z 32015KT 37/M02 A296 RMK A01 T03731024  RH  008%=      5-min Rain = 0
KCA2 250021Z 31012KT 37/M02 A296 RMK A01 T03731022  RH  008%=      5-min Rain = 0
KCA2 250022Z 32011KT 37/M02 A296 RMK A01 T03741023  RH  008%=      5-min Rain = 0
KCA2 250023Z 32013KT 37/M02 A296 RMK A01 T03741023  RH  008%=      5-min Rain = 0
KCA2 250024Z 31014KT 37/M02 A296 RMK A01 T03741023  RH  008%=      5-min Rain = 0
KCA2 250025Z 31015KT 37/M02 A296 RMK A01 T03731023  RH  008%=      5-min Rain = 0
KCA2 250026Z 32013KT 37/M03 A296 RMK A01 T03731025  RH  008%=      5-min Rain = 0
KCA2 250027Z 33013KT 37/M03 A296 RMK A01 T03721025  RH  008%=      5-min Rain = 0
KCA2 250028Z 33010KT 37/M03 A296 RMK A01 T03711026  RH  008%=      5-min Rain = 0
KCA2 250029Z 33012KT 37/M03 A296 RMK A01 T03711025  RH  008%=      5-min Rain = 0
KCA2 250030Z 33009KT 37/M03 A296 RMK A01 T03711025  RH  008%=      5-min Rain = 0
KCA2 250031Z 34012KT 37/M03 A296 RMK A01 T03711027  RH  008%=      5-min Rain = 0
KCA2 250032Z 34015KT 37/M03 A296 RMK A01 T03701029  RH  008%=      5-min Rain = 0
KCA2 250033Z 33013KT 37/M03 A296 RMK A01 T03701029  RH  008%=      5-min Rain = 0
KCA2 250034Z 33014KT 37/M03 A296 RMK A01 T03701027  RH  008%=      5-min Rain = 0
KCA2 250035Z 33011KT 37/M03 A296 RMK A01 T03701026  RH  008%=      5-min Rain = 0
KCA2 250036Z 33009KT 37/M03 A296 RMK A01 T03701026  RH  008%=      5-min Rain = 0
KCA2 250037Z 32007KT 37/M03 A296 RMK A01 T03701025  RH  008%=      5-min Rain = 0
KCA2 250038Z 32008KT 37/M03 A296 RMK A01 T03711025  RH  008%=      5-min Rain = 0
KCA2 250039Z 34007KT 37/M03 A296 RMK A01 T03721025  RH  008%=      5-min Rain = 0
KCA2 250040Z 32014G20KT 37/M03 A296 RMK A01 T03731028  RH  008%=      5-min Rain = 0
KCA2 250041Z 31014G21KT 37/M03 A296 RMK A01 T03731034  RH  007%=      5-min Rain = 0
KCA2 250042Z 29013G20KT 37/M03 A296 RMK A01 T03731033  RH  007%=      5-min Rain = 0
KCA2 250043Z 29009KT 37/M03 A296 RMK A01 T03721029  RH  008%=      5-min Rain = 0
KCA2 250044Z 29009KT 37/M03 A296 RMK A01 T03721031  RH  008%=      5-min Rain = 0
KCA2 250045Z 30008KT 37/M03 A296 RMK A01 T03711031  RH  008%=      5-min Rain = 0
KCA2 250046Z 30007KT 37/M03 A296 RMK A01 T03711032  RH  008%=      5-min Rain = 0
KCA2 250047Z 31008KT 37/M03 A2961 RMK A01 T03711031  RH  008%=      5-min Rain = 0
KCA2 250048Z 31012KT 37/M03 A296 RMK A01 T03721031  RH  008%=      5-min Rain = 0
KCA2 250049Z 30011KT 37/M03 A296 RMK A01 T03721032  RH  008%=      5-min Rain = 0
KCA2 250050Z 28013KT 37/M03 A296 RMK A01 T03711032  RH  008%=      5-min Rain = 0
KCA2 250051Z 29013KT 37/M03 A296 RMK A01 T03701031  RH  008%=      5-min Rain = 0
KCA2 250052Z 30011KT 37/M03 A2961 RMK A01 T03691029  RH  008%=      5-min Rain = 0
KCA2 250053Z 30010KT 37/M03 A2961 RMK A01 T03691028  RH  008%=      5-min Rain = 0
KCA2 250054Z 29013KT 37/M03 A2961 RMK A01 T03701027  RH  008%=      5-min Rain = 0
KCA2 250055Z 30014KT 37/M03 A2961 RMK A01 T03691031  RH  008%=      5-min Rain = 0
KCA2 250056Z 31014KT 37/M03 A2961 RMK A01 T03681031  RH  008%=      5-min Rain = 0
KCA2 250057Z 30013KT 37/M03 A2961 RMK A01 T03681031  RH  008%=      5-min Rain = 0
KCA2 250058Z 31014KT 37/M03 A2961 RMK A01 T03681033  RH  008%=      5-min Rain = 0
KCA2 250059Z 29011KT 37/M04 A2961 RMK A01 T03681036  RH  008%=      5-min Rain = 0
KCA2 250100Z 29011KT 37/M03 A2961 RMK A01 T03671033  RH  008%=      5-min Rain = 0
KCA2 250101Z 31011KT 37/M03 A2961 RMK A01 T03671034  RH  008%=      5-min Rain = 0
KCA2 250102Z 32014KT 37/M03 A2961 RMK A01 T03671029  RH  008%=      5-min Rain = 0
KCA2 250103Z 31017KT 37/M03 A296 RMK A01 T03671027  RH  008%=      5-min Rain = 0
KCA2 250104Z 31012KT 37/M03 A296 RMK A01 T03661026  RH  008%=      5-min Rain = 0
KCA2 250105Z 32011KT 37/M02 A2961 RMK A01 T03661024  RH  008%=      5-min Rain = 0
KCA2 250106Z 32010KT 37/M02 A2961 RMK A01 T03661024  RH  008%=      5-min Rain = 0
KCA2 250107Z 32012KT 37/M02 A2961 RMK A01 T03651024  RH  008%=      5-min Rain = 0
KCA2 250108Z 32013KT 37/M03 A2961 RMK A01 T03651026  RH  008%=      5-min Rain = 0
KCA2 250109Z 33011KT 37/M03 A2961 RMK A01 T03651027  RH  008%=      5-min Rain = 0
KCA2 250110Z 33010KT 36/M03 A2961 RMK A01 T03641027  RH  008%=      5-min Rain = 0
KCA2 250111Z 33010KT 36/M03 A2961 RMK A01 T03641027  RH  008%=      5-min Rain = 0
KCA2 250112Z 32011KT 36/M03 A2961 RMK A01 T03641027  RH  008%=      5-min Rain = 0
KCA2 250113Z 32011KT 36/M03 A2961 RMK A01 T03631027  RH  008%=      5-min Rain = 0
KCA2 250114Z 32010KT 36/M03 A2961 RMK A01 T03631026  RH  008%=      5-min Rain = 0
KCA2 250115Z 32012KT 36/M03 A2961 RMK A01 T03631027  RH  008%=      5-min Rain = 0
KCA2 250116Z 31012KT 36/M03 A296 RMK A01 T03631027  RH  008%=      5-min Rain = 0
KCA2 250117Z 32011KT 36/M03 A296 RMK A01 T03631026  RH  008%=      5-min Rain = 0
KCA2 250118Z 31009KT 36/M03 A2961 RMK A01 T03631026  RH  008%=      5-min Rain = 0
KCA2 250119Z 31011KT 36/M03 A2961 RMK A01 T03621026  RH  008%=      5-min Rain = 0
KCA2 250120Z 32009KT 36/M03 A2961 RMK A01 T03621029  RH  008%=      5-min Rain = 0
KCA2 250121Z 32008KT 36/M03 A2961 RMK A01 T03611029  RH  008%=      5-min Rain = 0
KCA2 250122Z 33007KT 36/M03 A2961 RMK A01 T03611028  RH  008%=      5-min Rain = 0
KCA2 250123Z 33007KT 36/M03 A2961 RMK A01 T03611028  RH  008%=      5-min Rain = 0
KCA2 250124Z 32007KT 36/M03 A2961 RMK A01 T03611029  RH  008%=      5-min Rain = 0
KCA2 250125Z 32007KT 36/M03 A2961 RMK A01 T03601028  RH  008%=      5-min Rain = 0
KCA2 250126Z 32006KT 36/M03 A2961 RMK A01 T03601028  RH  008%=      5-min Rain = 0
KCA2 250127Z 32006KT 36/M03 A2961 RMK A01 T03591028  RH  008%=      5-min Rain = 0
KCA2 250128Z 32006KT 36/M03 A2961 RMK A01 T03591027  RH  008%=      5-min Rain = 0
KCA2 250129Z 32005KT 36/M03 A2961 RMK A01 T03581027  RH  009%=      5-min Rain = 0
KCA2 250130Z 32007KT 36/M03 A2961 RMK A01 T03581026  RH  009%=      5-min Rain = 0
KCA2 250131Z 32007KT 36/M03 A2961 RMK A01 T03571027  RH  009%=      5-min Rain = 0
KCA2 250132Z 31009KT 36/M03 A2961 RMK A01 T03571026  RH  009%=      5-min Rain = 0
KCA2 250133Z 30009KT 36/M03 A2961 RMK A01 T03571028  RH  009%=      5-min Rain = 0
KCA2 250134Z 30007KT 36/M03 A2961 RMK A01 T03561031  RH  008%=      5-min Rain = 0
KCA2 250135Z 31007KT 36/M03 A2961 RMK A01 T03551031  RH  008%=      5-min Rain = 0
KCA2 250136Z 30010KT 35/M03 A2961 RMK A01 T03541032  RH  008%=      5-min Rain = 0
KCA2 250137Z 30011KT 35/M04 A2961 RMK A01 T03541035  RH  008%=      5-min Rain = 0
KCA2 250138Z 30010KT 36/M03 A2961 RMK A01 T03551034  RH  008%=      5-min Rain = 0
KCA2 250139Z 31009KT 36/M03 A2961 RMK A01 T03551033  RH  008%=      5-min Rain = 0
KCA2 250140Z 31009KT 35/M03 A2961 RMK A01 T03541032  RH  008%=      5-min Rain = 0
KCA2 250141Z 31009KT 35/M03 A2961 RMK A01 T03541033  RH  008%=      5-min Rain = 0
KCA2 250142Z 32007KT 35/M03 A2961 RMK A01 T03541033  RH  008%=      5-min Rain = 0
KCA2 250143Z 32009KT 35/M03 A2961 RMK A01 T03531033  RH  008%=      5-min Rain = 0
KCA2 250144Z 32009KT 35/M03 A2961 RMK A01 T03531034  RH  008%=      5-min Rain = 0
KCA2 250145Z 31007KT 35/M03 A2961 RMK A01 T03531034  RH  008%=      5-min Rain = 0
KCA2 250146Z 32009KT 35/M03 A2961 RMK A01 T03531034  RH  008%=      5-min Rain = 0
KCA2 250147Z 32008KT 35/M04 A2961 RMK A01 T03531036  RH  008%=      5-min Rain = 0
KCA2 250148Z 32007KT 35/M04 A2961 RMK A01 T03521036  RH  008%=      5-min Rain = 0
KCA2 250149Z 32007KT 35/M04 A2961 RMK A01 T03521035  RH  008%=      5-min Rain = 0
KCA2 250150Z 32006KT 35/M04 A2961 RMK A01 T03511035  RH  008%=      5-min Rain = 0
KCA2 250151Z 31006KT 35/M03 A2961 RMK A01 T03501034  RH  008%=      5-min Rain = 0
KCA2 250152Z 32007KT 35/M03 A2961 RMK A01 T03491034  RH  008%=      5-min Rain = 0
KCA2 250153Z 32009KT 35/M04 A2961 RMK A01 T03491035  RH  008%=      5-min Rain = 0
KCA2 250154Z 32009KT 35/M04 A2961 RMK A01 T03491036  RH  008%=      5-min Rain = 0
KCA2 250155Z 31009KT 35/M04 A2961 RMK A01 T03501036  RH  008%=      5-min Rain = 0
KCA2 250156Z 32009KT 35/M04 A2961 RMK A01 T03501037  RH  008%=      5-min Rain = 0
KCA2 250157Z 32010KT 35/M04 A2961 RMK A01 T03501037  RH  008%=      5-min Rain = 0
KCA2 250158Z 31009KT 35/M04 A2961 RMK A01 T03501038  RH  008%=      5-min Rain = 0
KCA2 250159Z 31008KT 35/M04 A2961 RMK A01 T03501038  RH  008%=      5-min Rain = 0
KCA2 250200Z 32008KT 35/M04 A2961 RMK A01 T03491038  RH  008%=      5-min Rain = 0
KCA2 250201Z 31009KT 35/M04 A2961 RMK A01 T03481039  RH  008%=      5-min Rain = 0
KCA2 250202Z 32008KT 35/M04 A2961 RMK A01 T03471040  RH  008%=      5-min Rain = 0
KCA2 250203Z 32008KT 35/M04 A2961 RMK A01 T03481040  RH  008%=      5-min Rain = 0
KCA2 250204Z 32007KT 35/M04 A2961 RMK A01 T03471041  RH  008%=      5-min Rain = 0
KCA2 250205Z 32008KT 35/M04 A2961 RMK A01 T03471041  RH  008%=      5-min Rain = 0
KCA2 250206Z 32010KT 35/M04 A2961 RMK A01 T03461041  RH  008%=      5-min Rain = 0
KCA2 250207Z 32008KT 35/M04 A2961 RMK A01 T03461042  RH  008%=      5-min Rain = 0
KCA2 250208Z 32008KT 35/M04 A2961 RMK A01 T03451042  RH  008%=      5-min Rain = 0
KCA2 250209Z 32008KT 34/M04 A2961 RMK A01 T03441042  RH  008%=      5-min Rain = 0
KCA2 250210Z 32008KT 34/M04 A2961 RMK A01 T03441043  RH  008%=      5-min Rain = 0
KCA2 250211Z 32008KT 34/M04 A2961 RMK A01 T03431044  RH  008%=      5-min Rain = 0
KCA2 250212Z 32008KT 34/M04 A2961 RMK A01 T03421044  RH  008%=      5-min Rain = 0
KCA2 250213Z 32008KT 34/M05 A2961 RMK A01 T03421045  RH  008%=      5-min Rain = 0
KCA2 250214Z 32008KT 34/M05 A2961 RMK A01 T03431045  RH  008%=      5-min Rain = 0
KCA2 250215Z 32007KT 34/M05 A2961 RMK A01 T03421045  RH  008%=      5-min Rain = 0
KCA2 250216Z 32008KT 34/M05 A2961 RMK A01 T03411045  RH  008%=      5-min Rain = 0
KCA2 250217Z 32008KT 34/M05 A2961 RMK A01 T03411046  RH  008%=      5-min Rain = 0
KCA2 250218Z 32008KT 34/M05 A2961 RMK A01 T03411046  RH  008%=      5-min Rain = 0
KCA2 250219Z 32007KT 34/M05 A2961 RMK A01 T03411046  RH  008%=      5-min Rain = 0
KCA2 250220Z 32007KT 34/M05 A2961 RMK A01 T03411046  RH  008%=      5-min Rain = 0
KCA2 250221Z 32007KT 34/M05 A2961 RMK A01 T03401045  RH  008%=      5-min Rain = 0
KCA2 250222Z 32007KT 34/M05 A2961 RMK A01 T03391046  RH  008%=      5-min Rain = 0
KCA2 250223Z 32007KT 34/M05 A2961 RMK A01 T03391046  RH  008%=      5-min Rain = 0
KCA2 250224Z 32008KT 34/M05 A2961 RMK A01 T03381045  RH  008%=      5-min Rain = 0
KCA2 250225Z 32008KT 34/M05 A2961 RMK A01 T03381046  RH  008%=      5-min Rain = 0
KCA2 250226Z 32006KT 34/M05 A2961 RMK A01 T03381046  RH  008%=      5-min Rain = 0
KCA2 250227Z 32007KT 34/M05 A2961 RMK A01 T03371045  RH  008%=      5-min Rain = 0
KCA2 250228Z 32006KT 34/M05 A2961 RMK A01 T03361046  RH  008%=      5-min Rain = 0
KCA2 250229Z 32006KT 34/M05 A2961 RMK A01 T03361046  RH  008%=      5-min Rain = 0
KCA2 250230Z 32006KT 34/M04 A2961 RMK A01 T03351044  RH  009%=      5-min Rain = 0
KCA2 250231Z 31007KT 33/M05 A2961 RMK A01 T03341045  RH  009%=      5-min Rain = 0
KCA2 250232Z 32007KT 33/M05 A2961 RMK A01 T03341045  RH  009%=      5-min Rain = 0
KCA2 250233Z 32006KT 33/M05 A2961 RMK A01 T03341045  RH  008%=      5-min Rain = 0
KCA2 250234Z 32006KT 33/M05 A2961 RMK A01 T03341046  RH  008%=      5-min Rain = 0
KCA2 250235Z 31006KT 33/M05 A2961 RMK A01 T03341045  RH  009%=      5-min Rain = 0
KCA2 250236Z 31007KT 33/M05 A2961 RMK A01 T03331045  RH  009%=      5-min Rain = 0
KCA2 250237Z 31007KT 33/M05 A2961 RMK A01 T03331046  RH  009%=      5-min Rain = 0
KCA2 250238Z 31006KT 33/M05 A2961 RMK A01 T03331047  RH  008%=      5-min Rain = 0
KCA2 250239Z 31006KT 33/M05 A2961 RMK A01 T03331046  RH  008%=      5-min Rain = 0
KCA2 250240Z 31006KT 33/M05 A2961 RMK A01 T03331047  RH  008%=      5-min Rain = 0
KCA2 250241Z 32005KT 33/M05 A2961 RMK A01 T03321047  RH  008%=      5-min Rain = 0
KCA2 250242Z 32006KT 33/M05 A2961 RMK A01 T03321047  RH  008%=      5-min Rain = 0
KCA2 250243Z 32006KT 33/M05 A2961 RMK A01 T03311046  RH  009%=      5-min Rain = 0
KCA2 250244Z 32006KT 33/M05 A2961 RMK A01 T03311048  RH  008%=      5-min Rain = 0
KCA2 250245Z 32007KT 33/M05 A2961 RMK A01 T03311049  RH  008%=      5-min Rain = 0
KCA2 250246Z 32006KT 33/M05 A2961 RMK A01 T03321049  RH  008%=      5-min Rain = 0
KCA2 250247Z 31006KT 33/M05 A2961 RMK A01 T03321049  RH  008%=      5-min Rain = 0
KCA2 250248Z 32006KT 33/M05 A2961 RMK A01 T03321049  RH  008%=      5-min Rain = 0
KCA2 250249Z 31006KT 33/M05 A2961 RMK A01 T03321049  RH  008%=      5-min Rain = 0
KCA2 250250Z 32006KT 33/M05 A2961 RMK A01 T03311049  RH  008%=      5-min Rain = 0
KCA2 250251Z 32006KT 33/M05 A2961 RMK A01 T03301049  RH  008%=      5-min Rain = 0
KCA2 250252Z 31006KT 33/M05 A2961 RMK A01 T03301049  RH  008%=      5-min Rain = 0
KCA2 250253Z 32006KT 33/M05 A2961 RMK A01 T03301049  RH  008%=      5-min Rain = 0
KCA2 250254Z 33005KT 33/M05 A2961 RMK A01 T03301050  RH  008%=      5-min Rain = 0
KCA2 250255Z 35005KT 33/M05 A2961 RMK A01 T03291049  RH  009%=      5-min Rain = 0
KCA2 250256Z 34006KT 33/M05 A2961 RMK A01 T03281049  RH  009%=      5-min Rain = 0
KCA2 250257Z 33008KT 33/M04 A2961 RMK A01 T03281037  RH  009%=      5-min Rain = 0
KCA2 250258Z 35008KT 33/M02 A2961 RMK A01 T03281020  RH  011%=      5-min Rain = 0
KCA2 250259Z 01008KT 33/01 A2961 RMK A01 T03280010  RH  013%=      5-min Rain = 0
KCA2 250300Z 01006KT 33/04 A2961 RMK A01 T03250039  RH  017%=      5-min Rain = 0
KCA2 250301Z 01006KT 32/06 A2961 RMK A01 T03220057  RH  019%=      5-min Rain = 0
KCA2 250302Z 00005KT 32/06 A2961 RMK A01 T03200064  RH  020%=      5-min Rain = 0
KCA2 250303Z 01007KT 32/07 A2961 RMK A01 T03180067  RH  021%=      5-min Rain = 0
KCA2 250304Z 00007KT 32/08 A2961 RMK A01 T03160077  RH  023%=      5-min Rain = 0
KCA2 250305Z 00006KT 32/08 A2961 RMK A01 T03160079  RH  023%=      5-min Rain = 0
KCA2 250306Z 36006KT 32/08 A2961 RMK A01 T03150081  RH  023%=      5-min Rain = 0
KCA2 250307Z 00006KT 31/08 A2961 RMK A01 T03140081  RH  023%=      5-min Rain = 0
KCA2 250308Z 01007KT 31/08 A2961 RMK A01 T03140082  RH  024%=      5-min Rain = 0
KCA2 250309Z 01009KT 31/09 A2961 RMK A01 T03130085  RH  024%=      5-min Rain = 0
KCA2 250310Z 36008KT 31/09 A2961 RMK A01 T03120086  RH  025%=      5-min Rain = 0
KCA2 250311Z 35009KT 31/09 A2961 RMK A01 T03120087  RH  025%=      5-min Rain = 0
KCA2 250312Z 00008KT 31/09 A2962 RMK A01 T03120088  RH  025%=      5-min Rain = 0
KCA2 250313Z 01011KT 31/09 A2962 RMK A01 T03120090  RH  025%=      5-min Rain = 0
KCA2 250314Z 00011KT 31/09 A2962 RMK A01 T03110092  RH  026%=      5-min Rain = 0
KCA2 250315Z 01011KT 31/10 A2962 RMK A01 T03110096  RH  026%=      5-min Rain = 0
KCA2 250316Z 00011KT 31/10 A2962 RMK A01 T03100099  RH  027%=      5-min Rain = 0
KCA2 250317Z 36010KT 31/10 A2962 RMK A01 T03090101  RH  028%=      5-min Rain = 0
KCA2 250318Z 35007KT 31/10 A2962 RMK A01 T03080102  RH  028%=      5-min Rain = 0
KCA2 250319Z 34007KT 31/10 A2962 RMK A01 T03070104  RH  028%=      5-min Rain = 0
KCA2 250320Z 33005KT 31/11 A2963 RMK A01 T03060106  RH  029%=      5-min Rain = 0
KCA2 250321Z 30005KT 31/11 A2963 RMK A01 T03050107  RH  029%=      5-min Rain = 0
KCA2 250322Z 27006KT 30/11 A2963 RMK A01 T03040105  RH  029%=      5-min Rain = 0
KCA2 250323Z 27008KT 30/09 A2963 RMK A01 T03020089  RH  027%=      5-min Rain = 0
KCA2 250324Z 27010KT 30/09 A2963 RMK A01 T03000087  RH  027%=      5-min Rain = 0
KCA2 250325Z 28010KT 30/09 A2963 RMK A01 T02980089  RH  027%=      5-min Rain = 0
KCA2 250326Z 28011KT 30/09 A2963 RMK A01 T02960088  RH  027%=      5-min Rain = 0
KCA2 250327Z 27012KT 30/10 A2963 RMK A01 T02960095  RH  029%=      5-min Rain = 0
KCA2 250328Z 28013KT 30/10 A2963 RMK A01 T02950098  RH  029%=      5-min Rain = 0
KCA2 250329Z 27010KT 29/10 A2963 RMK A01 T02940102  RH  030%=      5-min Rain = 0
KCA2 250330Z 28011KT 29/11 A2963 RMK A01 T02940107  RH  031%=      5-min Rain = 0
KCA2 250331Z 28011KT 29/11 A2963 RMK A01 T02930110  RH  032%=      5-min Rain = 0
KCA2 250332Z 28011KT 29/11 A2963 RMK A01 T02930112  RH  033%=      5-min Rain = 0
KCA2 250333Z 28010KT 29/11 A2963 RMK A01 T02930113  RH  033%=      5-min Rain = 0
KCA2 250334Z 28011KT 29/11 A2963 RMK A01 T02930114  RH  033%=      5-min Rain = 0
KCA2 250335Z 29011KT 29/12 A2963 RMK A01 T02930115  RH  033%=      5-min Rain = 0
KCA2 250336Z 29011KT 29/12 A2963 RMK A01 T02920116  RH  034%=      5-min Rain = 0
KCA2 250337Z 29011KT 29/12 A2963 RMK A01 T02920117  RH  034%=      5-min Rain = 0
KCA2 250338Z 29011KT 29/12 A2963 RMK A01 T02920117  RH  034%=      5-min Rain = 0
KCA2 250339Z 30010KT 29/12 A2963 RMK A01 T02920118  RH  034%=      5-min Rain = 0
KCA2 250340Z 30011KT 29/12 A2963 RMK A01 T02920118  RH  034%=      5-min Rain = 0
KCA2 250341Z 30010KT 29/12 A2963 RMK A01 T02920118  RH  034%=      5-min Rain = 0
KCA2 250342Z 29009KT 29/12 A2963 RMK A01 T02920118  RH  034%=      5-min Rain = 0
KCA2 250343Z 29009KT 29/12 A2963 RMK A01 T02920117  RH  034%=      5-min Rain = 0
KCA2 250344Z 29010KT 29/12 A2963 RMK A01 T02910118  RH  034%=      5-min Rain = 0
KCA2 250345Z 29010KT 29/12 A2963 RMK A01 T02900120  RH  035%=      5-min Rain = 0
KCA2 250346Z 28010KT 29/12 A2963 RMK A01 T02880122  RH  036%=      5-min Rain = 0
KCA2 250347Z 29009KT 29/12 A2963 RMK A01 T02870123  RH  036%=      5-min Rain = 0
KCA2 250348Z 28009KT 29/12 A2963 RMK A01 T02860124  RH  037%=      5-min Rain = 0
KCA2 250349Z 28009KT 29/13 A2963 RMK A01 T02850125  RH  037%=      5-min Rain = 0
KCA2 250350Z 28010KT 28/13 A2963 RMK A01 T02830127  RH  038%=      5-min Rain = 0
KCA2 250351Z 28011KT 28/13 A2963 RMK A01 T02820129  RH  039%=      5-min Rain = 0
KCA2 250352Z 28011KT 28/13 A2963 RMK A01 T02810129  RH  039%=      5-min Rain = 0
KCA2 250353Z 28008KT 28/13 A2964 RMK A01 T02810130  RH  039%=      5-min Rain = 0
KCA2 250354Z 29009KT 28/13 A2964 RMK A01 T02800130  RH  040%=      5-min Rain = 0
KCA2 250355Z 29010KT 28/13 A2964 RMK A01 T02790130  RH  040%=      5-min Rain = 0
KCA2 250356Z 30010KT 28/13 A2964 RMK A01 T02790131  RH  040%=      5-min Rain = 0
KCA2 250357Z 29010KT 28/13 A2964 RMK A01 T02790131  RH  040%=      5-min Rain = 0
KCA2 250358Z 30009KT 28/13 A2964 RMK A01 T02790131  RH  040%=      5-min Rain = 0
KCA2 250359Z 30011KT 28/13 A2964 RMK A01 T02790132  RH  040%=      5-min Rain = 0
KCA2 250400Z 30010KT 28/13 A2964 RMK A01 T02780132  RH  040%=      5-min Rain = 0
KCA2 250401Z 31010KT 28/13 A2964 RMK A01 T02780132  RH  041%=      5-min Rain = 0
KCA2 250402Z 31011KT 28/13 A2964 RMK A01 T02780132  RH  040%=      5-min Rain = 0
KCA2 250403Z 30011KT 28/13 A2964 RMK A01 T02780131  RH  040%=      5-min Rain = 0
KCA2 250404Z 31009KT 28/13 A2964 RMK A01 T02780131  RH  040%=      5-min Rain = 0
KCA2 250405Z 31010KT 28/13 A2964 RMK A01 T02780130  RH  040%=      5-min Rain = 0
KCA2 250406Z 32010KT 28/13 A2965 RMK A01 T02780130  RH  040%=      5-min Rain = 0
KCA2 250407Z 32011KT 28/13 A2965 RMK A01 T02790130  RH  040%=      5-min Rain = 0
KCA2 250408Z 32011KT 28/13 A2965 RMK A01 T02790130  RH  040%=      5-min Rain = 0
KCA2 250409Z 31011KT 28/13 A2965 RMK A01 T02790129  RH  040%=      5-min Rain = 0
KCA2 250410Z 31011KT 28/13 A2965 RMK A01 T02790128  RH  039%=      5-min Rain = 0
KCA2 250411Z 31010KT 28/13 A2965 RMK A01 T02800128  RH  039%=      5-min Rain = 0
KCA2 250412Z 31009KT 28/13 A2965 RMK A01 T02800127  RH  039%=      5-min Rain = 0
KCA2 250413Z 31011KT 28/13 A2965 RMK A01 T02800126  RH  039%=      5-min Rain = 0
KCA2 250414Z 31009KT 28/13 A2965 RMK A01 T02800126  RH  039%=      5-min Rain = 0
KCA2 250415Z 31011KT 28/13 A2965 RMK A01 T02800126  RH  039%=      5-min Rain = 0
KCA2 250416Z 30011KT 28/13 A2965 RMK A01 T02800127  RH  039%=      5-min Rain = 0
KCA2 250417Z 30010KT 28/13 A2965 RMK A01 T02790128  RH  039%=      5-min Rain = 0
KCA2 250418Z 30011KT 28/13 A2965 RMK A01 T02780131  RH  040%=      5-min Rain = 0
KCA2 250419Z 31010KT 28/13 A2965 RMK A01 T02770134  RH  041%=      5-min Rain = 0
KCA2 250420Z 30010KT 28/13 A2965 RMK A01 T02760134  RH  042%=      5-min Rain = 0
KCA2 250421Z 30010KT 27/14 A2965 RMK A01 T02740135  RH  042%=      5-min Rain = 0
KCA2 250422Z 29010KT 27/14 A2965 RMK A01 T02730136  RH  043%=      5-min Rain = 0
KCA2 250423Z 29011KT 27/14 A2965 RMK A01 T02720136  RH  043%=      5-min Rain = 0
KCA2 250424Z 29011KT 27/14 A2965 RMK A01 T02710136  RH  043%=      5-min Rain = 0
KCA2 250425Z 29012KT 27/14 A2965 RMK A01 T02710136  RH  043%=      5-min Rain = 0
KCA2 250426Z 28011KT 27/14 A2965 RMK A01 T02710135  RH  043%=      5-min Rain = 0
KCA2 250427Z 28011KT 27/13 A2965 RMK A01 T02700133  RH  043%=      5-min Rain = 0
KCA2 250428Z 28011KT 27/13 A2965 RMK A01 T02690131  RH  043%=      5-min Rain = 0
KCA2 250429Z 29012KT 27/13 A2964 RMK A01 T02680131  RH  043%=      5-min Rain = 0
KCA2 250430Z 29011KT 27/13 A2964 RMK A01 T02670132  RH  043%=      5-min Rain = 0
KCA2 250431Z 30012KT 27/13 A2964 RMK A01 T02670132  RH  043%=      5-min Rain = 0
KCA2 250432Z 30012KT 27/13 A2964 RMK A01 T02680132  RH  043%=      5-min Rain = 0
KCA2 250433Z 30014KT 27/13 A2964 RMK A01 T02690132  RH  043%=      5-min Rain = 0
KCA2 250434Z 30012KT 27/13 A2964 RMK A01 T02700133  RH  043%=      5-min Rain = 0
KCA2 250435Z 30011KT 27/13 A2964 RMK A01 T02700133  RH  043%=      5-min Rain = 0
KCA2 250436Z 30011KT 27/13 A2964 RMK A01 T02700134  RH  043%=      5-min Rain = 0
KCA2 250437Z 31011KT 27/13 A2964 RMK A01 T02700133  RH  043%=      5-min Rain = 0
KCA2 250438Z 30014KT 27/14 A2964 RMK A01 T02700135  RH  043%=      5-min Rain = 0
KCA2 250439Z 31013G18KT 27/14 A2964 RMK A01 T02700135  RH  043%=      5-min Rain = 0
KCA2 250440Z 31013KT 27/14 A2964 RMK A01 T02690135  RH  044%=      5-min Rain = 0
KCA2 250441Z 31015KT 27/14 A2964 RMK A01 T02690136  RH  044%=      5-min Rain = 0
KCA2 250442Z 30015KT 27/14 A2964 RMK A01 T02690136  RH  044%=      5-min Rain = 0
KCA2 250443Z 30011KT 27/14 A2964 RMK A01 T02690136  RH  044%=      5-min Rain = 0
KCA2 250444Z 29013KT 27/14 A2964 RMK A01 T02690135  RH  044%=      5-min Rain = 0
KCA2 250445Z 29013KT 27/14 A2964 RMK A01 T02690135  RH  044%=      5-min Rain = 0
KCA2 250446Z 29012KT 27/14 A2964 RMK A01 T02690135  RH  044%=      5-min Rain = 0
KCA2 250447Z 29012KT 27/13 A2965 RMK A01 T02690134  RH  044%=      5-min Rain = 0
KCA2 250448Z 29012KT 27/13 A2965 RMK A01 T02680134  RH  044%=      5-min Rain = 0
KCA2 250449Z 29011KT 27/13 A2965 RMK A01 T02670134  RH  044%=      5-min Rain = 0
KCA2 250450Z 29013KT 27/14 A2965 RMK A01 T02670135  RH  044%=      5-min Rain = 0
KCA2 250451Z 29011KT 27/13 A2965 RMK A01 T02670134  RH  044%=      5-min Rain = 0
KCA2 250452Z 28010KT 27/13 A2965 RMK A01 T02660134  RH  044%=      5-min Rain = 0
KCA2 250453Z 29012KT 27/13 A2965 RMK A01 T02660134  RH  044%=      5-min Rain = 0
KCA2 250454Z 29012KT 27/14 A2965 RMK A01 T02650135  RH  045%=      5-min Rain = 0
KCA2 250455Z 29014KT 27/14 A2965 RMK A01 T02650136  RH  045%=      5-min Rain = 0
KCA2 250456Z 30015KT 27/14 A2965 RMK A01 T02650137  RH  045%=      5-min Rain = 0
KCA2 250457Z 29014KT 27/14 A2965 RMK A01 T02650136  RH  045%=      5-min Rain = 0
KCA2 250458Z 29012KT 27/14 A2965 RMK A01 T02650136  RH  045%=      5-min Rain = 0
KCA2 250459Z 29012KT 27/14 A2965 RMK A01 T02650136  RH  045%=      5-min Rain = 0

Page generated in 0.1415 seconds.